SondeTracker

Meteorological Radiosondes Database

Operations

Sounding was ended - last measurement: 2022-12-06 01:47:46z

MAP
About Radiosonde

Number: U2420915

Launch Site: Camborne (GB)

Type: RS41

AUX: NO

Frequency: 403.30 MHz

Max Speed: 154 km/h at 33514 m

Average Speed: 41.11 km/h

Max Altitude: 34220 m

Average Ascent Speed: 5.06 m/s

Average Descent Speed: 14.14 m/s

Status: LOST

Status Changes
Launch Site Type AUX Frequency Status Finder Landing Point Description Changes made by
MHz LOST 0, 0 AUTO STATUS: Probably lost in the water [BOT]AUTO-STATUS - 2022-12-06 02:16:33z
APRS Statistics

Received Frames: 713

First Frame [UTC]: 2022-12-05 23:17:05z

Last Frame [UTC]: 2022-12-06 01:47:46z

Receivers: F4IPA, KERNO2-14, M1CTK-14, M7CWL-14

Flight Time: 02:30:41 h

Distance From First Measurement: 43.51 km

Nearest City: Falmouth (GB) [22.73 km]

Nearest Hunter: Kernow [27.52 km]

Ground Altitude: -123 m

Distance from QTH: 0.00 km

APRS Data
Receiver Number Date/Time [UTC] φ λ Course [°] Speed [km/h] Altitude [m] Description
KERNO2-14U24209152022-12-06 01:47:4650.0982-4.761542514884Clb=-5.9m/s t=8.4C h=79.4% 403.30MHz Type=RS41-SG Details on http://radiosondy.info
KERNO2-14U24209152022-12-06 01:47:4050.0985-4.7604825350112Clb=-6.1m/s t=8.3C h=82.7% 403.30MHz Type=RS41-SG TxOff=7h50m Details on http://radiosondy.info
KERNO2-14U24209152022-12-06 01:47:3450.0987-4.759425248145Clb=-6.4m/s t=8.0C h=83.8% 403.30MHz Type=RS41-SG batt=2.7V Details on http://radiosondy.info
KERNO2-14U24209152022-12-06 01:47:2850.0989-4.7583325148179Clb=-6.5m/s t=7.8C h=85.8% 403.30MHz Type=RS41-SG Details on http://radiosondy.info
KERNO2-14U24209152022-12-06 01:47:2250.0991-4.7572725446213Clb=-5.7m/s t=7.2C h=85.1% 403.30MHz Type=RS41-SG Details on http://radiosondy.info
KERNO2-14U24209152022-12-06 01:47:1650.0993-4.7562325346246Clb=-5.6m/s t=6.9C h=87.2% 403.30MHz Type=RS41-SG batt=2.7V Details on http://radiosondy.info
KERNO2-14U24209152022-12-06 01:47:1050.0994-4.7551825646279Clb=-5.7m/s t=6.7C h=88.8% 403.30MHz Type=RS41-SG Details on http://radiosondy.info
KERNO2-14U24209152022-12-06 01:47:0450.0996-4.7541226046309Clb=-5.0m/s t=6.4C h=90.8% 403.30MHz Type=RS41-SG Details on http://radiosondy.info
KERNO2-14U24209152022-12-06 01:46:5850.0998-4.7530625846337Clb=-4.7m/s t=6.1C h=92.0% 403.30MHz Type=RS41-SG batt=2.7V Details on http://radiosondy.info
KERNO2-14U24209152022-12-06 01:46:5250.0999-4.7520226048364Clb=-4.9m/s t=6.0C h=90.2% 403.30MHz Type=RS41-SG TxOff=7h51m Details on http://radiosondy.info
KERNO2-14U24209152022-12-06 01:46:4650.1-4.7509325846391Clb=-5.0m/s t=5.8C h=90.7% 403.30MHz Type=RS41-SG Details on http://radiosondy.info
KERNO2-14U24209152022-12-06 01:46:4050.1002-4.749925946419Clb=-5.1m/s t=5.5C h=91.6% 403.30MHz Type=RS41-SG batt=2.7V Details on http://radiosondy.info
KERNO2-14U24209152022-12-06 01:46:3450.1003-4.7488226046447Clb=-5.1m/s t=5.3C h=90.4% 403.30MHz Type=RS41-SG Details on http://radiosondy.info
KERNO2-14U24209152022-12-06 01:46:2850.1004-4.7477526044477Clb=-5.1m/s t=5.1C h=89.9% 403.30MHz Type=RS41-SG Details on http://radiosondy.info
KERNO2-14U24209152022-12-06 01:46:2250.1005-4.7467126244505Clb=-5.1m/s t=5.0C h=88.2% 403.30MHz Type=RS41-SG batt=2.7V Details on http://radiosondy.info
KERNO2-14U24209152022-12-06 01:46:1650.1006-4.7456626644536Clb=-5.0m/s t=4.7C h=89.7% 403.30MHz Type=RS41-SG Details on http://radiosondy.info
KERNO2-14U24209152022-12-06 01:46:1050.1007-4.7446426344565Clb=-5.1m/s t=4.5C h=92.6% 403.30MHz Type=RS41-SG Details on http://radiosondy.info
KERNO2-14U24209152022-12-06 01:46:0450.1007-4.7436326843596Clb=-5.5m/s t=4.3C h=93.9% 403.30MHz Type=RS41-SG TxOff=7h51m batt=2.7V Details on http://radiosondy.info
KERNO2-14U24209152022-12-06 01:45:5850.1008-4.7426226543628Clb=-5.3m/s t=4.2C h=95.0% 403.30MHz Type=RS41-SG Details on http://radiosondy.info
KERNO2-14U24209152022-12-06 01:45:5250.1008-4.7416426943657Clb=-4.8m/s t=3.9C h=97.1% 403.30MHz Type=RS41-SG Details on http://radiosondy.info
KERNO2-14U24209152022-12-06 01:45:4650.1008-4.7406627041686Clb=-4.7m/s t=3.7C h=98.2% 403.30MHz Type=RS41-SG batt=2.7V Details on http://radiosondy.info
KERNO2-14U24209152022-12-06 01:45:4050.1008-4.7396927243715Clb=-4.8m/s t=3.6C h=98.5% 403.30MHz Type=RS41-SG Details on http://radiosondy.info
KERNO2-14U24209152022-12-06 01:45:3450.1008-4.7387427541745Clb=-4.5m/s t=3.3C 403.30MHz Type=RS41-SG Details on http://radiosondy.info
KERNO2-14U24209152022-12-06 01:45:2850.1007-4.737827439772Clb=-5.3m/s t=3.1C 403.30MHz Type=RS41-SG batt=2.7V Details on http://radiosondy.info
KERNO2-14U24209152022-12-06 01:45:2250.1007-4.7369127537799Clb=-4.6m/s t=2.9C 403.30MHz Type=RS41-SG Details on http://radiosondy.info
KERNO2-14U24209152022-12-06 01:45:1650.1006-4.7360528037827Clb=-5.0m/s t=2.7C 403.30MHz Type=RS41-SG TxOff=7h52m Details on http://radiosondy.info
KERNO2-14U24209152022-12-06 01:45:1050.1005-4.7352228835856Clb=-4.7m/s t=2.6C 403.30MHz Type=RS41-SG batt=2.7V Details on http://radiosondy.info
KERNO2-14U24209152022-12-06 01:45:0450.1004-4.7344428535885Clb=-5.4m/s t=2.4C 403.30MHz Type=RS41-SG Details on http://radiosondy.info
KERNO2-14U24209152022-12-06 01:44:5850.1003-4.7336628735916Clb=-4.8m/s t=2.3C 403.30MHz Type=RS41-SG Details on http://radiosondy.info
KERNO2-14U24209152022-12-06 01:44:5250.1001-4.7328828933943Clb=-4.7m/s t=2.1C 403.30MHz Type=RS41-SG batt=2.7V Details on http://radiosondy.info
KERNO2-14U24209152022-12-06 01:44:4650.0999-4.7321428533971Clb=-5.2m/s t=1.9C 403.30MHz Type=RS41-SG Details on http://radiosondy.info
KERNO2-14U24209152022-12-06 01:44:4050.0998-4.73139288331002Clb=-5.2m/s t=1.8C 403.30MHz Type=RS41-SG Details on http://radiosondy.info
KERNO2-14U24209152022-12-06 01:44:3450.0996-4.73067292331032Clb=-4.5m/s t=1.6C 403.30MHz Type=RS41-SG batt=2.6V Details on http://radiosondy.info
KERNO2-14U24209152022-12-06 01:44:2850.0995-4.72997289311064Clb=-5.8m/s t=1.4C 403.30MHz Type=RS41-SG TxOff=7h53m Details on http://radiosondy.info
KERNO2-14U24209152022-12-06 01:44:2250.0993-4.72929293311100Clb=-6.3m/s t=1.2C 403.30MHz Type=RS41-SG Details on http://radiosondy.info
KERNO2-14U24209152022-12-06 01:44:1650.0991-4.72864298301135Clb=-6.4m/s t=1.0C 403.30MHz Type=RS41-SG batt=2.7V Details on http://radiosondy.info
KERNO2-14U24209152022-12-06 01:44:1050.0989-4.72804299311173Clb=-6.4m/s t=0.7C 403.30MHz Type=RS41-SG Details on http://radiosondy.info
KERNO2-14U24209152022-12-06 01:44:0450.0986-4.72742304311208Clb=-6.4m/s t=0.5C 403.30MHz Type=RS41-SG Details on http://radiosondy.info
KERNO2-14U24209152022-12-06 01:43:5850.0983-4.72684305301245Clb=-6.4m/s t=0.3C 403.30MHz Type=RS41-SG batt=2.6V Details on http://radiosondy.info
KERNO2-14U24209152022-12-06 01:43:5250.0981-4.72628307301282Clb=-6.1m/s t=0.1C 403.30MHz Type=RS41-SG Details on http://radiosondy.info
KERNO2-14U24209152022-12-06 01:43:4650.0978-4.72572306301321Clb=-7.5m/s t=-0.1C 403.30MHz Type=RS41-SG Details on http://radiosondy.info
KERNO2-14U24209152022-12-06 01:43:4050.0975-4.72517305301362Clb=-7.1m/s t=-0.4C 403.30MHz Type=RS41-SG TxOff=7h54m batt=2.6V Details on http://radiosondy.info
KERNO2-14U24209152022-12-06 01:43:3450.0973-4.72461305301404Clb=-7.1m/s t=-0.7C 403.30MHz Type=RS41-SG Details on http://radiosondy.info
KERNO2-14U24209152022-12-06 01:43:2850.097-4.72408309301446Clb=-6.9m/s t=-0.9C 403.30MHz Type=RS41-SG Details on http://radiosondy.info
KERNO2-14U24209152022-12-06 01:43:2250.0967-4.72356312311487Clb=-6.8m/s t=-1.2C 403.30MHz Type=RS41-SG batt=2.6V Details on http://radiosondy.info
KERNO2-14U24209152022-12-06 01:43:1650.0964-4.72303309301525Clb=-6.9m/s t=-1.4C 403.30MHz Type=RS41-SG Details on http://radiosondy.info
KERNO2-14U24209152022-12-06 01:43:1050.0961-4.72252312301565Clb=-6.7m/s t=-1.7C 403.30MHz Type=RS41-SG Details on http://radiosondy.info
KERNO2-14U24209152022-12-06 01:43:0450.0958-4.72201308311602Clb=-6.8m/s t=-2.0C 403.30MHz Type=RS41-SG batt=2.6V Details on http://radiosondy.info
KERNO2-14U24209152022-12-06 01:42:5850.0955-4.72145305281641Clb=-7.4m/s t=-2.2C 403.30MHz Type=RS41-SG Details on http://radiosondy.info
KERNO2-14U24209152022-12-06 01:42:5250.0953-4.72092308301685Clb=-7.2m/s t=-2.5C 403.30MHz Type=RS41-SG TxOff=7h55m Details on http://radiosondy.info
KERNO2-14U24209152022-12-06 01:42:4650.095-4.72038307301724Clb=-6.7m/s t=-2.8C 403.30MHz Type=RS41-SG batt=2.5V Details on http://radiosondy.info
KERNO2-14U24209152022-12-06 01:42:4050.0948-4.71984304261765Clb=-7.0m/s t=-3.2C 403.30MHz Type=RS41-SG Details on http://radiosondy.info
KERNO2-14U24209152022-12-06 01:42:3450.0946-4.71936308241806Clb=-6.9m/s t=-3.5C 403.30MHz Type=RS41-SG Details on http://radiosondy.info
KERNO2-14U24209152022-12-06 01:42:2850.0944-4.71892299201844Clb=-6.2m/s t=-3.7C 403.30MHz Type=RS41-SG batt=2.6V Details on http://radiosondy.info
KERNO2-14U24209152022-12-06 01:42:2250.0942-4.7185292171880Clb=-6.1m/s t=-3.9C 403.30MHz Type=RS41-SG Details on http://radiosondy.info
KERNO2-14U24209152022-12-06 01:42:1650.0941-4.71815293171919Clb=-6.8m/s t=-4.1C 403.30MHz Type=RS41-SG Details on http://radiosondy.info
KERNO2-14U24209152022-12-06 01:42:1050.094-4.7178287151956Clb=-6.8m/s t=-4.3C 403.30MHz Type=RS41-SG batt=2.5V Details on http://radiosondy.info
KERNO2-14U24209152022-12-06 01:42:0450.094-4.71747270111997Clb=-6.8m/s t=-0.9C h=36.9% 403.30MHz Type=RS41-SG TxOff=7h55m Details on http://radiosondy.info
KERNO2-14U24209152022-12-06 01:41:5850.094-4.7172127092037Clb=-7.1m/s t=-0.1C h=24.2% 403.30MHz Type=RS41-SG Details on http://radiosondy.info
KERNO2-14U24209152022-12-06 01:41:5250.0941-4.7169827892079Clb=-6.8m/s t=-0.2C h=22.0% 403.30MHz Type=RS41-SG batt=2.6V Details on http://radiosondy.info
KERNO2-14U24209152022-12-06 01:41:4250.094-4.7166825872144Clb=-7.0m/s t=-0.8C h=25.4% 403.30MHz Type=RS41-SG Details on http://radiosondy.info
KERNO2-14U24209152022-12-06 01:41:3650.094-4.7165127572183Clb=-6.8m/s t=-1.1C h=27.6% 403.30MHz Type=RS41-SG Details on http://radiosondy.info
KERNO2-14U24209152022-12-06 01:41:2850.0941-4.7162627092235Clb=-6.1m/s t=-1.5C h=32.0% 403.30MHz Type=RS41-SG batt=2.5V Details on http://radiosondy.info
KERNO2-14U24209152022-12-06 01:41:2250.0941-4.71605274112271Clb=-6.5m/s t=-1.8C h=36.7% 403.30MHz Type=RS41-SG Details on http://radiosondy.info
KERNO2-14U24209152022-12-06 01:41:1650.0941-4.71577262132308Clb=-6.5m/s t=-2.0C h=37.5% 403.30MHz Type=RS41-SG Details on http://radiosondy.info
KERNO2-14U24209152022-12-06 01:41:1050.0941-4.71547278132344Clb=-6.1m/s t=-2.2C h=37.3% 403.30MHz Type=RS41-SG TxOff=7h56m batt=2.6V Details on http://radiosondy.info
KERNO2-14U24209152022-12-06 01:41:0450.0941-4.71513286172380Clb=-6.1m/s t=-2.4C h=36.0% 403.30MHz Type=RS41-SG Details on http://radiosondy.info
KERNO2-14U24209152022-12-06 01:40:5850.094-4.71475286172416Clb=-6.0m/s t=-2.6C h=38.7% 403.30MHz Type=RS41-SG Details on http://radiosondy.info
KERNO2-14U24209152022-12-06 01:40:5250.094-4.71438283172451Clb=-6.5m/s t=-2.9C h=40.3% 403.30MHz Type=RS41-SG batt=2.6V Details on http://radiosondy.info
KERNO2-14U24209152022-12-06 01:40:4650.0939-4.71399291172490Clb=-6.8m/s t=-3.2C h=39.1% 403.30MHz Type=RS41-SG Details on http://radiosondy.info
KERNO2-14U24209152022-12-06 01:40:4050.0938-4.71362289172528Clb=-6.2m/s t=-3.5C h=37.4% 403.30MHz Type=RS41-SG Details on http://radiosondy.info
KERNO2-14U24209152022-12-06 01:40:3450.0938-4.71324283172564Clb=-6.7m/s t=-3.9C h=56.8% 403.30MHz Type=RS41-SG batt=2.6V Details on http://radiosondy.info
KERNO2-14U24209152022-12-06 01:40:2850.0937-4.71286278172601Clb=-6.2m/s t=-4.2C h=64.0% 403.30MHz Type=RS41-SG Details on http://radiosondy.info
KERNO2-14U24209152022-12-06 01:40:2250.0937-4.71249274172639Clb=-6.6m/s t=-4.5C h=66.1% 403.30MHz Type=RS41-SG TxOff=7h57m Details on http://radiosondy.info
KERNO2-14U24209152022-12-06 01:40:1650.0937-4.71211281152678Clb=-6.2m/s t=-4.8C h=67.3% 403.30MHz Type=RS41-SG batt=2.6V Details on http://radiosondy.info
KERNO2-14U24209152022-12-06 01:40:1050.0937-4.71177260152714Clb=-6.4m/s t=-5.1C h=67.0% 403.30MHz Type=RS41-SG Details on http://radiosondy.info
KERNO2-14U24209152022-12-06 01:40:0450.0938-4.71142262152752Clb=-6.4m/s t=-5.4C h=67.9% 403.30MHz Type=RS41-SG Details on http://radiosondy.info
KERNO2-14U24209152022-12-06 01:39:5650.0938-4.71097258152802Clb=-6.4m/s t=-5.8C h=69.0% 403.30MHz Type=RS41-SG batt=2.6V Details on http://radiosondy.info
KERNO2-14U24209152022-12-06 01:39:5050.0939-4.71066239152840Clb=-6.8m/s t=-6.1C h=69.4% 403.30MHz Type=RS41-SG Details on http://radiosondy.info
KERNO2-14U24209152022-12-06 01:39:4450.0941-4.71034245152880Clb=-6.7m/s t=-6.3C h=68.3% 403.30MHz Type=RS41-SG Details on http://radiosondy.info
KERNO2-14U24209152022-12-06 01:39:3850.0941-4.71003257172919Clb=-6.4m/s t=-6.4C h=66.4% 403.30MHz Type=RS41-SG batt=2.6V Details on http://radiosondy.info
KERNO2-14U24209152022-12-06 01:39:3250.0942-4.70968250172957Clb=-6.4m/s t=-6.4C h=63.1% 403.30MHz Type=RS41-SG TxOff=7h58m Details on http://radiosondy.info
KERNO2-14U24209152022-12-06 01:39:2650.0943-4.70933250172995Clb=-7.0m/s t=-6.2C h=57.8% 403.30MHz Type=RS41-SG Details on http://radiosondy.info
KERNO2-14U24209152022-12-06 01:39:1250.0944-4.70847272153090Clb=-6.9m/s t=-6.7C h=54.8% 403.30MHz Type=RS41-SG batt=2.5V Details on http://radiosondy.info
KERNO2-14U24209152022-12-06 01:38:5650.0943-4.70751279153198Clb=-7.0m/s t=-7.6C h=57.2% 403.30MHz Type=RS41-SG Details on http://radiosondy.info
KERNO2-14U24209152022-12-06 01:38:4050.0942-4.70656279153307Clb=-6.4m/s t=-8.5C h=59.9% 403.30MHz Type=RS41-SG Details on http://radiosondy.info
KERNO2-14U24209152022-12-06 01:38:2450.094-4.70573300133413Clb=-7.3m/s t=-9.2C h=55.7% 403.30MHz Type=RS41-SG batt=2.6V Details on http://radiosondy.info
KERNO2-14U24209152022-12-06 01:38:0850.0937-4.70502303133527Clb=-6.9m/s t=-10.0C h=55.7% 403.30MHz Type=RS41-SG Details on http://radiosondy.info
KERNO2-14U24209152022-12-06 01:37:5250.0935-4.7043300153640Clb=-7.5m/s t=-10.7C h=49.1% 403.30MHz Type=RS41-SG Details on http://radiosondy.info
KERNO2-14U24209152022-12-06 01:37:3650.0932-4.70356303153754Clb=-7.1m/s t=-11.3C h=38.0% 403.30MHz Type=RS41-SG batt=2.6V Details on http://radiosondy.info
KERNO2-14U24209152022-12-06 01:37:2050.0927-4.70286332203870Clb=-6.6m/s t=-12.1C h=43.4% 403.30MHz Type=RS41-SG Details on http://radiosondy.info
KERNO2-14U24209152022-12-06 01:37:0450.0921-4.70222331203982Clb=-7.4m/s t=-12.7C h=37.2% 403.30MHz Type=RS41-SG Details on http://radiosondy.info
KERNO2-14U24209152022-12-06 01:36:4850.0913-4.70159334204098Clb=-7.4m/s t=-13.6C h=34.1% 403.30MHz Type=RS41-SG TxOff=8h01m batt=2.6V Details on http://radiosondy.info
KERNO2-14U24209152022-12-06 01:36:3250.0906-4.70101330204216Clb=-6.9m/s t=-14.4C h=25.2% 403.30MHz Type=RS41-SG Details on http://radiosondy.info
KERNO2-14U24209152022-12-06 01:36:1650.0898-4.70049344224328Clb=-7.1m/s t=-15.3C h=23.5% 403.30MHz Type=RS41-SG Details on http://radiosondy.info
KERNO2-14U24209152022-12-06 01:36:0050.089-4.70004336204443Clb=-7.8m/s t=-16.2C h=18.9% 403.30MHz Type=RS41-SG batt=2.5V Details on http://radiosondy.info
KERNO2-14U24209152022-12-06 01:35:4450.0882-4.69951332204562Clb=-7.4m/s t=-17.3C h=19.0% 403.30MHz Type=RS41-SG Details on http://radiosondy.info
KERNO2-14U24209152022-12-06 01:35:2850.0874-4.69881334264681Clb=-7.5m/s t=-18.2C h=17.0% 403.30MHz Type=RS41-SG Details on http://radiosondy.info
KERNO2-14U24209152022-12-06 01:35:1250.0866-4.69797328264800Clb=-8.1m/s t=-19.1C h=17.6% 403.30MHz Type=RS41-SG batt=2.5V Details on http://radiosondy.info
KERNO2-14U24209152022-12-06 01:34:5650.0857-4.69714329204917Clb=-7.2m/s t=-19.5C h=10.4% 403.30MHz Type=RS41-SG Details on http://radiosondy.info
KERNO2-14U24209152022-12-06 01:34:4050.0851-4.69657336175038Clb=-7.8m/s t=-19.5C h=5.5% 403.30MHz Type=RS41-SG Details on http://radiosondy.info
KERNO2-14U24209152022-12-06 01:34:2450.0845-4.69602319175162Clb=-8.4m/s t=-20.5C h=5.7% 403.30MHz Type=RS41-SG TxOff=8h03m batt=2.5V Details on http://radiosondy.info
KERNO2-14U24209152022-12-06 01:34:0850.0839-4.69544333205288Clb=-8.0m/s t=-21.5C h=7.2% 403.30MHz Type=RS41-SG Details on http://radiosondy.info
KERNO2-14U24209152022-12-06 01:33:5250.0832-4.6949340265408Clb=-8.2m/s t=-22.2C h=6.5% 403.30MHz Type=RS41-SG Details on http://radiosondy.info
KERNO2-14U24209152022-12-06 01:33:3650.0822-4.69431344245535Clb=-8.5m/s t=-22.9C h=9.0% 403.30MHz Type=RS41-SG batt=2.4V Details on http://radiosondy.info
KERNO2-14U24209152022-12-06 01:33:2050.0813-4.69395353205662Clb=-8.4m/s t=-23.9C h=10.5% 403.30MHz Type=RS41-SG Details on http://radiosondy.info
KERNO2-14U24209152022-12-06 01:33:0450.0805-4.69382359225788Clb=-8.2m/s t=-25.0C h=8.1% 403.30MHz Type=RS41-SG Details on http://radiosondy.info
KERNO2-14U24209152022-12-06 01:32:4850.0797-4.6940411245915Clb=-8.6m/s t=-26.0C h=5.6% 403.30MHz Type=RS41-SG batt=2.6V Details on http://radiosondy.info
KERNO2-14U24209152022-12-06 01:32:3250.0787-4.694418266045Clb=-8.9m/s t=-27.0C h=11.1% 403.30MHz Type=RS41-SG Details on http://radiosondy.info
KERNO2-14U24209152022-12-06 01:32:1650.0777-4.694817286175Clb=-8.8m/s t=-28.1C h=18.1% 403.30MHz Type=RS41-SG Details on http://radiosondy.info
KERNO2-14U24209152022-12-06 01:32:0050.0767-4.6952819266306Clb=-8.7m/s t=-29.2C h=13.1% 403.30MHz Type=RS41-SG TxOff=8h06m batt=2.6V Details on http://radiosondy.info
KERNO2-14U24209152022-12-06 01:31:4450.0757-4.6957821266435Clb=-8.9m/s t=-30.2C h=6.8% 403.30MHz Type=RS41-SG Details on http://radiosondy.info
KERNO2-14U24209152022-12-06 01:31:2850.0747-4.6962414246567Clb=-8.9m/s t=-31.0C h=6.4% 403.30MHz Type=RS41-SG Details on http://radiosondy.info
KERNO2-14U24209152022-12-06 01:31:1250.0738-4.696723246697Clb=-9.2m/s t=-32.1C h=13.3% 403.30MHz Type=RS41-SG batt=2.4V Details on http://radiosondy.info
KERNO2-14U24209152022-12-06 01:30:5650.0729-4.6973231306828Clb=-8.8m/s t=-33.1C h=30.9% 403.30MHz Type=RS41-SG Details on http://radiosondy.info
KERNO2-14U24209152022-12-06 01:30:4050.0718-4.6981229306965Clb=-8.9m/s t=-34.5C h=49.7% 403.30MHz Type=RS41-SG Details on http://radiosondy.info
KERNO2-14U24209152022-12-06 01:30:2450.0708-4.6990532307099Clb=-9.1m/s t=-35.4C h=26.5% 403.30MHz Type=RS41-SG batt=2.5V Details on http://radiosondy.info
KERNO2-14U24209152022-12-06 01:30:1050.0697-4.6999230307234Clb=-9.3m/s t=-36.6C h=27.4% 403.30MHz Type=RS41-SG Details on http://radiosondy.info
M7CWL-14U24209152022-12-06 01:29:5450.0687-4.7005319267353Clb=-9.0m/s t=-37.5C h=30.3% 403.30MHz Type=RS41-SG batt=2.4V Details on http://radiosondy.info
KERNO2-14U24209152022-12-06 01:29:5250.0686-4.7006127267370Clb=-9.5m/s t=-37.6C h=30.5% 403.30MHz Type=RS41-SG Details on http://radiosondy.info
M7CWL-14U24209152022-12-06 01:29:3850.0678-4.7012232247492Clb=-9.4m/s t=-38.3C h=27.9% 403.30MHz Type=RS41-SG Details on http://radiosondy.info
KERNO2-14U24209152022-12-06 01:29:3650.0677-4.7013226247510Clb=-8.9m/s t=-38.4C h=27.9% 403.30MHz Type=RS41-SG TxOff=8h08m batt=2.4V Details on http://radiosondy.info
M7CWL-14U24209152022-12-06 01:29:2350.067-4.7020541247621Clb=-9.1m/s t=-39.4C h=28.6% 403.30MHz Type=RS41-SG Details on http://radiosondy.info
KERNO2-14U24209152022-12-06 01:29:2050.0669-4.7022447247647Clb=-9.3m/s t=-39.6C h=28.8% 403.30MHz Type=RS41-SG Details on http://radiosondy.info
M7CWL-14U24209152022-12-06 01:29:0850.0664-4.7030452417753Clb=-9.5m/s t=-40.6C h=31.0% 403.30MHz Type=RS41-SG batt=2.5V Details on http://radiosondy.info
KERNO2-14U24209152022-12-06 01:29:0450.0662-4.7033153267789Clb=-9.5m/s t=-41.0C h=31.9% 403.30MHz Type=RS41-SG Details on http://radiosondy.info
KERNO2-14U24209152022-12-06 01:28:4850.0655-4.7044649287923Clb=-9.1m/s t=-42.2C h=35.7% 403.30MHz Type=RS41-SG batt=2.4V Details on http://radiosondy.info
KERNO2-14U24209152022-12-06 01:28:3250.0649-4.705956358059Clb=-9.1m/s t=-43.6C h=36.8% 403.30MHz Type=RS41-SG Details on http://radiosondy.info
KERNO2-14U24209152022-12-06 01:28:1650.0641-4.7077956448196Clb=-8.9m/s t=-44.4C h=27.4% 403.30MHz Type=RS41-SG Details on http://radiosondy.info
KERNO2-14U24209152022-12-06 01:28:0050.063-4.7100754508338Clb=-9.7m/s t=-45.4C h=25.4% 403.30MHz Type=RS41-SG batt=2.4V Details on http://radiosondy.info
KERNO2-14U24209152022-12-06 01:27:4450.0618-4.7125751508487Clb=-9.7m/s t=-46.5C h=35.2% 403.30MHz Type=RS41-SG Details on http://radiosondy.info
KERNO2-14U24209152022-12-06 01:27:2850.0605-4.7150753508635Clb=-9.9m/s t=-47.9C h=41.8% 403.30MHz Type=RS41-SG Details on http://radiosondy.info
KERNO2-14U24209152022-12-06 01:27:1250.0593-4.7175152528786Clb=-9.8m/s t=-49.3C h=48.2% 403.30MHz Type=RS41-SG TxOff=8h10m batt=2.4V Details on http://radiosondy.info
KERNO2-14U24209152022-12-06 01:26:5650.0581-4.7203563638934Clb=-9.5m/s t=-49.7C h=12.5% 403.30MHz Type=RS41-SG Details on http://radiosondy.info
M7CWL-14U24209152022-12-06 01:26:5450.058-4.7207763638953Clb=-9.7m/s t=-49.5C h=11.0% 403.30MHz Type=RS41-SG Details on http://radiosondy.info
KERNO2-14U24209152022-12-06 01:26:4050.057-4.7238462619086Clb=-9.9m/s t=-49.3C h=9.4% 403.30MHz Type=RS41-SG Details on http://radiosondy.info
M7CWL-14U24209152022-12-06 01:26:3950.0569-4.7240564619096Clb=-10.1m/s t=-49.3C h=9.4% 403.30MHz Type=RS41-SG Details on http://radiosondy.info
M7CWL-14U24209152022-12-06 01:26:2450.056-4.7273265679239Clb=-9.6m/s t=-50.4C h=11.3% 403.30MHz Type=RS41-SG TxOff=8h11m batt=2.4V Details on http://radiosondy.info
KERNO2-14U24209152022-12-06 01:26:2250.0559-4.7277869679258Clb=-9.8m/s t=-50.4C h=11.7% 403.30MHz Type=RS41-SG batt=2.5V Details on http://radiosondy.info
M7CWL-14U24209152022-12-06 01:26:0850.0549-4.7311365699393Clb=-9.9m/s t=-51.0C h=13.4% 403.30MHz Type=RS41-SG Details on http://radiosondy.info
KERNO2-14U24209152022-12-06 01:26:0650.0548-4.7316266729412Clb=-9.7m/s t=-51.1C h=13.7% 403.30MHz Type=RS41-SG Details on http://radiosondy.info
KERNO2-14U24209152022-12-06 01:25:5050.0538-4.7359372749568Clb=-10.4m/s t=-52.0C h=17.0% 403.30MHz Type=RS41-SG Details on http://radiosondy.info
KERNO2-14U24209152022-12-06 01:25:3450.0529-4.7403876749729Clb=-10.4m/s t=-52.8C h=19.1% 403.30MHz Type=RS41-SG batt=2.4V Details on http://radiosondy.info
KERNO2-14U24209152022-12-06 01:25:1850.0521-4.744875769892Clb=-10.5m/s t=-53.5C h=20.1% 403.30MHz Type=RS41-SG Details on http://radiosondy.info
KERNO2-14U24209152022-12-06 01:25:0250.0512-4.7494777610056Clb=-10.7m/s t=-54.4C h=21.8% 403.30MHz Type=RS41-SG Details on http://radiosondy.info
KERNO2-14U24209152022-12-06 01:24:4650.0506-4.75392797010223Clb=-10.8m/s t=-55.5C h=21.3% 403.30MHz Type=RS41-SG TxOff=8h13m batt=2.4V Details on http://radiosondy.info
KERNO2-14U24209152022-12-06 01:24:3150.0499-4.7581746510389Clb=-10.9m/s t=-56.3C h=18.8% 403.30MHz Type=RS41-SG Details on http://radiosondy.info
KERNO2-14U24209152022-12-06 01:24:1450.0493-4.76207786710561Clb=-10.8m/s t=-56.7C h=17.7% 403.30MHz Type=RS41-SG Details on http://radiosondy.info
KERNO2-14U24209152022-12-06 01:23:5850.0487-4.76619836110734Clb=-11.1m/s t=-57.4C h=16.5% 403.30MHz Type=RS41-SG batt=2.4V Details on http://radiosondy.info
M7CWL-14U24209152022-12-06 01:23:5350.0487-4.76745875710788Clb=-11.0m/s t=-57.2C h=15.9% 403.30MHz Type=RS41-SG Details on http://radiosondy.info
KERNO2-14U24209152022-12-06 01:23:4250.0485-4.76995845410906Clb=-10.9m/s t=-57.8C h=15.6% 403.30MHz Type=RS41-SG Details on http://radiosondy.info
M7CWL-14U24209152022-12-06 01:23:3750.0484-4.77104815210962Clb=-10.6m/s t=-57.7C h=14.9% 403.30MHz Type=RS41-SG batt=2.5V Details on http://radiosondy.info
KERNO2-14U24209152022-12-06 01:23:2650.0482-4.77321764611083Clb=-11.1m/s t=-58.6C h=13.9% 403.30MHz Type=RS41-SG Details on http://radiosondy.info
M7CWL-14U24209152022-12-06 01:23:2250.048-4.77395804411127Clb=-11.2m/s t=-58.4C h=13.4% 403.30MHz Type=RS41-SG Details on http://radiosondy.info
KERNO2-14U24209152022-12-06 01:23:1050.0478-4.77597784311259Clb=-11.8m/s t=-58.5C h=11.5% 403.30MHz Type=RS41-SG batt=2.4V Details on http://radiosondy.info
M7CWL-14U24209152022-12-06 01:23:0750.0477-4.77646803711293Clb=-11.9m/s t=-58.8C h=11.3% 403.30MHz Type=RS41-SG Details on http://radiosondy.info
KERNO2-14U24209152022-12-06 01:22:5450.0474-4.77861814111438Clb=-12.3m/s t=-58.0C h=8.2% 403.30MHz Type=RS41-SG Details on http://radiosondy.info
KERNO2-14U24209152022-12-06 01:22:3850.047-4.78105774111622Clb=-11.1m/s t=-56.9C h=6.0% 403.30MHz Type=RS41-SG Details on http://radiosondy.info
KERNO2-14U24209152022-12-06 01:22:2250.0468-4.78357863311806Clb=-12.1m/s t=-56.3C h=5.1% 403.30MHz Type=RS41-SG TxOff=8h15m batt=2.4V Details on http://radiosondy.info
KERNO2-14U24209152022-12-06 01:22:0650.0467-4.78564843311998Clb=-12.0m/s t=-56.9C h=5.2% 403.30MHz Type=RS41-SG Details on http://radiosondy.info
KERNO2-14U24209152022-12-06 01:21:5050.0464-4.78765733712192Clb=-12.8m/s t=-56.8C h=5.1% 403.30MHz Type=RS41-SG Details on http://radiosondy.info
KERNO2-14U24209152022-12-06 01:21:3450.0461-4.7899993312390Clb=-13.3m/s t=-55.5C h=4.5% 403.30MHz Type=RS41-SG batt=2.4V Details on http://radiosondy.info
KERNO2-14U24209152022-12-06 01:21:1850.0462-4.79197853112596Clb=-13.1m/s t=-56.1C h=4.7% 403.30MHz Type=RS41-SG Details on http://radiosondy.info
KERNO2-14U24209152022-12-06 01:21:0250.0461-4.79396913712804Clb=-13.0m/s t=-55.4C h=4.5% 403.30MHz Type=RS41-SG Details on http://radiosondy.info
M7CWL-14U24209152022-12-06 01:20:5250.046-4.79532823912934Clb=-13.6m/s t=-55.7C h=4.6% 403.30MHz Type=RS41-SG batt=2.4V Details on http://radiosondy.info
KERNO2-14U24209152022-12-06 01:20:4650.0459-4.79622923713013Clb=-14.1m/s t=-55.0C h=4.3% 403.30MHz Type=RS41-SG batt=2.4V Details on http://radiosondy.info
M7CWL-14U24209152022-12-06 01:20:3750.0461-4.79751003113137Clb=-14.0m/s t=-55.1C h=4.2% 403.30MHz Type=RS41-SG Details on http://radiosondy.info
KERNO2-14U24209152022-12-06 01:20:3150.0462-4.798371112613233Clb=-13.8m/s t=-55.4C h=4.3% 403.30MHz Type=RS41-SG Details on http://radiosondy.info
M7CWL-14U24209152022-12-06 01:20:2250.0465-4.79921232013344Clb=-14.1m/s t=-55.4C h=4.2% 403.30MHz Type=RS41-SG Details on http://radiosondy.info
KERNO2-14U24209152022-12-06 01:20:1450.0466-4.799791091913454Clb=-14.6m/s t=-55.7C h=4.3% 403.30MHz Type=RS41-SG Details on http://radiosondy.info
M7CWL-14U24209152022-12-06 01:20:0750.0467-4.800231151913555Clb=-14.3m/s t=-55.9C h=4.4% 403.30MHz Type=RS41-SG TxOff=8h17m batt=2.4V Details on http://radiosondy.info
KERNO2-14U24209152022-12-06 01:19:5850.0469-4.800881172813684Clb=-14.2m/s t=-56.3C h=4.5% 403.30MHz Type=RS41-SG TxOff=8h18m batt=2.4V Details on http://radiosondy.info
KERNO2-14U24209152022-12-06 01:19:4050.0473-4.802621092413939Clb=-15.9m/s t=-56.8C h=4.6% 403.30MHz Type=RS41-SG Details on http://radiosondy.info
KERNO2-14U24209152022-12-06 01:19:2450.0474-4.80408943314173Clb=-15.4m/s t=-57.1C h=4.5% 403.30MHz Type=RS41-SG Details on http://radiosondy.info
KERNO2-14U24209152022-12-06 01:19:0950.0474-4.80607873514417Clb=-15.5m/s t=-57.3C h=4.5% 403.30MHz Type=RS41-SG batt=2.5V Details on http://radiosondy.info
KERNO2-14U24209152022-12-06 01:18:5250.0473-4.80829933514665Clb=-16.1m/s t=-56.8C h=4.3% 403.30MHz Type=RS41-SG Details on http://radiosondy.info
KERNO2-14U24209152022-12-06 01:18:3650.0474-4.81039982414916Clb=-15.6m/s t=-57.3C h=4.4% 403.30MHz Type=RS41-SG Details on http://radiosondy.info
KERNO2-14U24209152022-12-06 01:18:2050.0477-4.811641332415171Clb=-17.1m/s t=-56.9C h=4.2% 403.30MHz Type=RS41-SG batt=2.5V Details on http://radiosondy.info
KERNO2-14U24209152022-12-06 01:18:0650.0482-4.812821352015428Clb=-16.3m/s t=-57.0C h=4.3% 403.30MHz Type=RS41-SG Details on http://radiosondy.info
M7CWL-14U24209152022-12-06 01:17:5450.0486-4.813541292615627Clb=-16.4m/s t=-56.9C h=4.2% 403.30MHz Type=RS41-SG Details on http://radiosondy.info
KERNO2-14U24209152022-12-06 01:17:5150.0488-4.81381413015692Clb=-16.6m/s t=-56.8C h=4.1% 403.30MHz Type=RS41-SG Details on http://radiosondy.info
M7CWL-14U24209152022-12-06 01:17:4050.0495-4.814361613015876Clb=-17.2m/s t=-57.6C h=4.3% 403.30MHz Type=RS41-SG Details on http://radiosondy.info
KERNO2-14U24209152022-12-06 01:17:3450.0499-4.814561662615961Clb=-17.3m/s t=-57.4C h=4.2% 403.30MHz Type=RS41-SG TxOff=8h20m batt=2.5V Details on http://radiosondy.info
M7CWL-14U24209152022-12-06 01:17:2350.0506-4.81471821916135Clb=-17.7m/s t=-58.1C h=4.5% 403.30MHz Type=RS41-SG batt=2.4V Details on http://radiosondy.info
KERNO2-14U24209152022-12-06 01:17:1750.0509-4.814661921316239Clb=-17.7m/s t=-57.8C h=4.4% 403.30MHz Type=RS41-SG Details on http://radiosondy.info
M7CWL-14U24209152022-12-06 01:17:0850.0512-4.814531782416396Clb=-18.5m/s t=-58.2C h=4.6% 403.30MHz Type=RS41-SG Details on http://radiosondy.info
KERNO2-14U24209152022-12-06 01:17:0150.0513-4.814661091316521Clb=-17.8m/s t=-57.0C h=4.2% 403.30MHz Type=RS41-SG Details on http://radiosondy.info
KERNO2-14U24209152022-12-06 01:16:4450.0516-4.815311341516810Clb=-18.5m/s t=-57.5C h=4.2% 403.30MHz Type=RS41-SG batt=2.4V Details on http://radiosondy.info
KERNO2-14U24209152022-12-06 01:16:2850.0521-4.815831611317105Clb=-18.9m/s t=-57.7C h=4.2% 403.30MHz Type=RS41-SG Details on http://radiosondy.info
KERNO2-14U24209152022-12-06 01:16:1250.0526-4.815941682417404Clb=-19.6m/s t=-57.7C h=4.2% 403.30MHz Type=RS41-SG Details on http://radiosondy.info
KERNO2-14U24209152022-12-06 01:15:5650.0535-4.816371502017710Clb=-20.5m/s t=-58.0C h=4.1% 403.30MHz Type=RS41-SG batt=2.4V Details on http://radiosondy.info
KERNO2-14U24209152022-12-06 01:15:4250.0542-4.816821511518026Clb=-20.1m/s t=-59.3C h=4.7% 403.30MHz Type=RS41-SG Details on http://radiosondy.info
KERNO2-14U24209152022-12-06 01:15:2750.0547-4.81711931918344Clb=-20.9m/s t=-58.0C h=4.2% 403.30MHz Type=RS41-SG Details on http://radiosondy.info
KERNO2-14U24209152022-12-06 01:15:1250.0554-4.816982013118674Clb=-20.8m/s t=-58.0C h=4.3% 403.30MHz Type=RS41-SG TxOff=8h22m batt=2.5V Details on http://radiosondy.info
M7CWL-14U24209152022-12-06 01:15:0050.0562-4.816572003718905Clb=-21.5m/s t=-58.0C h=4.3% 403.30MHz Type=RS41-SG Details on http://radiosondy.info
KERNO2-14U24209152022-12-06 01:14:5650.0566-4.816471833719011Clb=-21.3m/s t=-57.2C h=3.9% 403.30MHz Type=RS41-SG Details on http://radiosondy.info
M7CWL-14U24209152022-12-06 01:14:4750.0576-4.816271943719227Clb=-22.3m/s t=-57.3C h=3.8% 403.30MHz Type=RS41-SG batt=2.5V Details on http://radiosondy.info
KERNO2-14U24209152022-12-06 01:14:4150.0581-4.815932082619358Clb=-21.7m/s t=-58.5C h=4.1% 403.30MHz Type=RS41-SG Details on http://radiosondy.info
M7CWL-14U24209152022-12-06 01:14:3150.0586-4.815262352019577Clb=-22.4m/s t=-59.4C h=4.3% 403.30MHz Type=RS41-SG Details on http://radiosondy.info
KERNO2-14U24209152022-12-06 01:14:2650.0587-4.814812612019709Clb=-22.6m/s t=-59.7C h=4.4% 403.30MHz Type=RS41-SG batt=2.5V Details on http://radiosondy.info
M7CWL-14U24209152022-12-06 01:14:1450.0589-4.813992323319983Clb=-23.2m/s t=-60.8C h=4.8% 403.30MHz Type=RS41-SG Details on http://radiosondy.info
KERNO2-14U24209152022-12-06 01:14:1050.059-4.813762451520074Clb=-23.4m/s t=-61.3C h=5.1% 403.30MHz Type=RS41-SG Details on http://radiosondy.info
KERNO2-14U24209152022-12-06 01:13:5250.0594-4.81306245920492Clb=-23.5m/s t=-60.2C h=4.6% 403.30MHz Type=RS41-SG Details on http://radiosondy.info
KERNO2-14U24209152022-12-06 01:13:3650.0598-4.8131832620874Clb=-25.0m/s t=-60.6C h=4.4% 403.30MHz Type=RS41-SG batt=2.5V Details on http://radiosondy.info
KERNO2-14U24209152022-12-06 01:13:2050.0608-4.81341702621273Clb=-25.1m/s t=-62.0C h=4.9% 403.30MHz Type=RS41-SG Details on http://radiosondy.info
F4IPAU24209152022-12-06 01:13:1950.0609-4.813451662621323Clb=-25.5m/s t=-62.4C h=1.3% p=-1.0hPa 403.300 MHz Type=RS41-SG ser=U2420915 Radiosonde
KERNO2-14U24209152022-12-06 01:13:0350.0618-4.813731843521680Clb=-25.3m/s t=-62.6C h=5.5% 403.30MHz Type=RS41-SG Details on http://radiosondy.info
F4IPAU24209152022-12-06 01:12:4850.0634-4.813451925722120Clb=-27.3m/s t=-60.0C h=1.0% p=-1.0hPa 403.300 MHz Type=RS41-SG ser=U2420915 Radiosonde
KERNO2-14U24209152022-12-06 01:12:3150.0656-4.813081914422534Clb=-28.1m/s t=-61.7C h=4.7% 403.30MHz Type=RS41-SG Details on http://radiosondy.info
M1CTK-14U24209152022-12-06 01:12:1750.0671-4.812421953522929Clb=-28.7m/s t=-62.8C h=1.1% p=-1.0hPa 403.300 MHz Type=RS41-SG ser=U2420915 Radiosonde auto_rx v1.5.9
F4IPAU24209152022-12-06 01:12:1650.0672-4.812351913522986Clb=-29.1m/s t=-62.9C h=1.2% p=-1.0hPa 403.300 MHz Type=RS41-SG ser=U2420915 Radiosonde
KERNO2-14U24209152022-12-06 01:12:1550.0672-4.812351924122986Clb=-29.1m/s t=-62.9C h=5.2% 403.30MHz Type=RS41-SG Details on http://radiosondy.info
M7CWL-14U24209152022-12-06 01:11:5850.0688-4.812611751923427Clb=-29.8m/s t=-62.8C h=5.1% 403.30MHz Type=RS41-SG TxOff=8h26m batt=2.5V Details on http://radiosondy.info
KERNO2-14U24209152022-12-06 01:11:5750.0688-4.812621771923456Clb=-29.6m/s t=-62.9C h=5.1% 403.30MHz Type=RS41-SG batt=2.5V Details on http://radiosondy.info
M1CTK-14U24209152022-12-06 01:11:4650.0691-4.813041062023813Clb=-30.6m/s t=-62.7C h=1.1% p=-1.0hPa 403.300 MHz Type=RS41-SG ser=U2420915 Radiosonde auto_rx v1.5.9
M7CWL-14U24209152022-12-06 01:11:4450.0691-4.813221163323875Clb=-31.4m/s t=-62.7C h=5.1% 403.30MHz Type=RS41-SG Details on http://radiosondy.info
KERNO2-14U24209152022-12-06 01:11:4250.0692-4.813411263523938Clb=-31.2m/s t=-62.5C h=4.9% 403.30MHz Type=RS41-SG Details on http://radiosondy.info
M7CWL-14U24209152022-12-06 01:11:2950.07-4.814581324124348Clb=-32.1m/s t=-62.2C h=4.6% 403.30MHz Type=RS41-SG Details on http://radiosondy.info
KERNO2-14U24209152022-12-06 01:11:2650.0702-4.814921304324444Clb=-32.2m/s t=-62.7C h=4.7% 403.30MHz Type=RS41-SG Details on http://radiosondy.info
M1CTK-14U24209152022-12-06 01:11:1650.071-4.816211414624807Clb=-33.8m/s t=-63.3C h=1.1% p=-1.0hPa 403.300 MHz Type=RS41-SG ser=U2420915 Radiosonde auto_rx v1.5.9
M7CWL-14U24209152022-12-06 01:11:1550.0711-4.816321445224840Clb=-33.6m/s t=-63.5C h=5.1% 403.30MHz Type=RS41-SG batt=2.4V Details on http://radiosondy.info
F4IPAU24209152022-12-06 01:11:1450.0713-4.816511504124907Clb=-34.0m/s t=-63.8C h=1.1% p=-1.0hPa 403.300 MHz Type=RS41-SG ser=U2420915 Radiosonde
KERNO2-14U24209152022-12-06 01:11:1150.0715-4.816661524124975Clb=-34.4m/s t=-63.8C h=5.2% 403.30MHz Type=RS41-SG batt=2.5V Details on http://radiosondy.info
KERNO2-14U24209152022-12-06 01:10:5450.0727-4.818341484125529Clb=-36.4m/s t=-64.1C h=5.4% 403.30MHz Type=RS41-SG Details on http://radiosondy.info
M1CTK-14U24209152022-12-06 01:10:4750.0735-4.818781634325818Clb=-37.1m/s t=-63.1C h=1.0% p=-1.0hPa 403.300 MHz Type=RS41-SG ser=U2420915 Radiosonde auto_rx v1.5.9
F4IPAU24209152022-12-06 01:10:4250.074-4.818951673926002Clb=-37.0m/s t=-63.1C h=1.0% p=-1.0hPa 403.300 MHz Type=RS41-SG ser=U2420915 Radiosonde
KERNO2-14U24209152022-12-06 01:10:3950.0742-4.819081645026113Clb=-37.4m/s t=-63.6C h=4.9% 403.30MHz Type=RS41-SG Details on http://radiosondy.info
KERNO2-14U24209152022-12-06 01:10:2250.0761-4.820371536126721Clb=-38.6m/s t=-64.5C h=5.5% 403.30MHz Type=RS41-SG TxOff=8h27m batt=2.6V Details on http://radiosondy.info
M1CTK-14U24209152022-12-06 01:10:1550.0769-4.82111455026992Clb=-39.1m/s t=-64.8C h=1.0% p=-1.0hPa 403.300 MHz Type=RS41-SG ser=U2420915 Radiosonde auto_rx v1.5.9
F4IPAU24209152022-12-06 01:10:1150.0774-4.821661465627188Clb=-40.6m/s t=-65.0C h=1.1% p=-1.0hPa 403.300 MHz Type=RS41-SG ser=U2420915 Radiosonde
M1CTK-14U24209152022-12-06 01:09:4650.0799-4.82581277228210Clb=-41.9m/s t=-64.2C h=1.0% p=-1.0hPa 403.300 MHz Type=RS41-SG ser=U2420915 Radiosonde auto_rx v1.5.9
F4IPAU24209152022-12-06 01:09:4150.0806-4.827051356728462Clb=-42.3m/s t=-65.1C h=1.1% p=-1.0hPa 403.300 MHz Type=RS41-SG ser=U2420915 Radiosonde
KERNO2-14U24209152022-12-06 01:09:2450.0826-4.828981455929166Clb=-44.2m/s t=-66.1C h=6.4% 403.30MHz Type=RS41-SG Details on http://radiosondy.info
M1CTK-14U24209152022-12-06 01:09:1650.0832-4.830041255929476Clb=-45.3m/s t=-65.1C h=1.2% p=-1.0hPa 403.300 MHz Type=RS41-SG ser=U2420915 Radiosonde auto_rx v1.5.9
F4IPAU24209152022-12-06 01:09:0950.084-4.831631327029852Clb=-48.7m/s t=-64.5C h=1.1% p=-1.0hPa 403.300 MHz Type=RS41-SG ser=U2420915 Radiosonde
KERNO2-14U24209152022-12-06 01:09:0850.0841-4.831831327229900Clb=-48.6m/s t=-64.3C h=5.6% 403.30MHz Type=RS41-SG batt=2.5V Details on http://radiosondy.info
M7CWL-14U24209152022-12-06 01:08:5950.0849-4.833291326130245Clb=-50.4m/s t=-64.2C h=5.7% 403.30MHz Type=RS41-SG Details on http://radiosondy.info
M1CTK-14U24209152022-12-06 01:08:4550.0859-4.83641107231014Clb=-52.3m/s t=-63.1C h=1.1% p=-1.0hPa 403.300 MHz Type=RS41-SG ser=U2420915 Radiosonde auto_rx v1.5.9
M7CWL-14U24209152022-12-06 01:08:4350.086-4.836671128331067Clb=-52.7m/s t=-62.9C h=5.1% 403.30MHz Type=RS41-SG Details on http://radiosondy.info
KERNO2-14U24209152022-12-06 01:08:3850.0864-4.8380311810031332Clb=-53.7m/s t=-62.6C h=5.1% 403.30MHz Type=RS41-SG Details on http://radiosondy.info
F4IPAU24209152022-12-06 01:08:3750.0866-4.838591158131440Clb=-55.2m/s t=-62.1C h=-1.0% p=-1.0hPa 403.300 MHz Type=RS41-SG ser=U2420915 Radiosonde
M7CWL-14U24209152022-12-06 01:08:2750.0872-4.8412211011731874Clb=-55.1m/s t=-62.7C h=5.1% 403.30MHz Type=RS41-SG batt=2.5V Details on http://radiosondy.info
M1CTK-14U24209152022-12-06 01:08:1250.0892-4.8467311812032592Clb=-49.2m/s t=-62.6C h=-1.0% p=-1.0hPa 403.300 MHz Type=RS41-SG ser=U2420915 Radiosonde auto_rx v1.5.9
M7CWL-14U24209152022-12-06 01:08:1050.0893-4.8471611611932640Clb=-47.9m/s t=-62.5C h=5.2% 403.30MHz Type=RS41-SG Details on http://radiosondy.info
KERNO2-14U24209152022-12-06 01:08:0450.09-4.8505110613032973Clb=-49.7m/s t=-62.5C h=5.3% 403.30MHz Type=RS41-SG Details on http://radiosondy.info
F4IPAU24209152022-12-06 01:08:0350.0901-4.85110713033021Clb=-49.0m/s t=-273.0C h=-1.0% p=-1.0hPa 403.300 MHz Type=RS41 ser=U2420915 Radiosonde
KERNO2-14U24209152022-12-06 01:07:4750.0917-4.8575411513033756Clb=-43.9m/s t=-60.9C h=4.6% 403.30MHz Type=RS41-SG batt=2.5V Details on http://radiosondy.info
M1CTK-14U24209152022-12-06 01:07:4250.0927-4.8603811714634059Clb=-50.4m/s t=-273.0C h=-1.0% p=-1.0hPa 403.300 MHz Type=RS41 ser=U2420915 Radiosonde auto_rx v1.5.9
F4IPAU24209152022-12-06 01:07:3150.0935-4.8650611113334220Clb=6.7m/s t=-61.2C h=0.8% p=-1.0hPa 403.300 MHz Type=RS41-SG ser=U2420915 Radiosonde
KERNO2-14U24209152022-12-06 01:07:2550.0942-4.8677710311334185Clb=6.1m/s t=-61.2C h=4.5% 403.30MHz Type=RS41-SG Details on http://radiosondy.info
KERNO2-14U24209152022-12-06 01:07:0950.0956-4.8742910812034091Clb=4.4m/s t=-61.8C h=4.9% 403.30MHz Type=RS41-SG Details on http://radiosondy.info
F4IPAU24209152022-12-06 01:07:0050.097-4.878021199834040Clb=7.5m/s t=-61.9C h=0.8% p=-1.0hPa 403.300 MHz Type=RS41-SG ser=U2420915 Radiosonde
KERNO2-14U24209152022-12-06 01:06:5350.0979-4.8807912413034000Clb=7.7m/s t=-61.6C h=4.8% 403.30MHz Type=RS41-SG TxPastBurst=8h30m batt=2.5V Details on http://radiosondy.info
F4IPAU24209152022-12-06 01:06:4350.1007-4.8906910210033864Clb=5.2m/s t=-61.1C h=-1.0% p=-1.0hPa 403.300 MHz Type=RS41-SG ser=U2420915 Radiosonde
KERNO2-14U24209152022-12-06 01:06:4250.1014-4.893810712033822Clb=6.0m/s t=-61.4C h=4.6% 403.30MHz Type=RS41-SG Details on http://radiosondy.info
KERNO2-14U24209152022-12-06 01:06:4150.1028-4.901612012433716Clb=4.1m/s t=-62.1C h=4.8% 403.30MHz Type=RS41-SG batt=2.6V Details on http://radiosondy.info
KERNO2-14U24209152022-12-06 01:06:4050.1051-4.9098510613733607Clb=4.8m/s t=-62.9C h=5.2% 403.30MHz Type=RS41-SG Details on http://radiosondy.info
KERNO2-14U24209152022-12-06 01:06:3850.1071-4.9164111514333524Clb=5.1m/s t=-62.4C h=4.9% 403.30MHz Type=RS41-SG Details on http://radiosondy.info
F4IPAU24209152022-12-06 01:06:3750.1075-4.9174912315433514Clb=4.6m/s t=-62.4C h=-1.0% p=-1.0hPa 403.300 MHz Type=RS41-SG ser=U2420915 Radiosonde
M7CWL-14U24209152022-12-06 01:06:3650.1084-4.9193111613733485Clb=4.4m/s t=-62.2C h=5.0% 403.30MHz Type=RS41-SG Details on http://radiosondy.info
KERNO2-14U24209152022-12-06 01:06:2950.1095-4.9242111712833432Clb=6.6m/s t=-62.1C h=4.9% 403.30MHz Type=RS41-SG batt=2.5V Details on http://radiosondy.info
M7CWL-14U24209152022-12-06 01:06:2550.11-4.9260111012233404Clb=3.7m/s t=-62.0C h=4.8% 403.30MHz Type=RS41-SG Details on http://radiosondy.info
KERNO2-14U24209152022-12-06 01:06:1850.111-4.9314410111933339Clb=4.9m/s t=-62.0C h=4.6% 403.30MHz Type=RS41-SG Details on http://radiosondy.info
F4IPAU24209152022-12-06 01:06:1750.111-4.9314410010033339Clb=5.0m/s t=-62.1C h=-1.0% p=-1.0hPa 403.300 MHz Type=RS41-SG ser=U2420915 Radiosonde
KERNO2-14U24209152022-12-06 01:06:0850.112-4.937969412633266Clb=4.7m/s t=-62.9C h=5.0% 403.30MHz Type=RS41-SG Details on http://radiosondy.info
F4IPAU24209152022-12-06 01:06:0050.113-4.9468610513133171Clb=5.1m/s t=-273.0C h=-1.0% p=-1.0hPa 403.300 MHz Type=RS41-SG ser=U2420915 Radiosonde
KERNO2-14U24209152022-12-06 01:05:5850.114-4.9526610111933100Clb=6.7m/s t=-63.1C h=5.1% 403.30MHz Type=RS41-SG TxPastBurst=8h30m batt=2.6V Details on http://radiosondy.info
KERNO2-14U24209152022-12-06 01:05:5550.1148-4.9599810012633013Clb=5.9m/s t=-63.3C h=5.0% 403.30MHz Type=RS41-SG Details on http://radiosondy.info
KERNO2-14U24209152022-12-06 01:05:4950.1178-4.9751212711732825Clb=3.7m/s t=-63.1C h=4.9% 403.30MHz Type=RS41-SG Details on http://radiosondy.info
M7CWL-14U24209152022-12-06 01:05:4550.1202-4.9831311913032711Clb=7.6m/s t=-63.3C h=5.1% 403.30MHz Type=RS41-SG batt=2.6V Details on http://radiosondy.info
F4IPAU24209152022-12-06 01:05:4350.1216-4.9868712910232657Clb=7.2m/s t=-273.0C h=-1.0% p=-1.0hPa 403.300 MHz Type=RS41-SG ser=U2420915 Radiosonde
M7CWL-14U24209152022-12-06 01:05:3950.1226-4.9889911711332621Clb=7.9m/s t=-63.3C h=5.2% 403.30MHz Type=RS41-SG Details on http://radiosondy.info
KERNO2-14U24209152022-12-06 01:05:3250.124-4.9927712910032560Clb=7.1m/s t=-63.3C h=5.1% 403.30MHz Type=RS41-SG batt=2.5V Details on http://radiosondy.info
M7CWL-14U24209152022-12-06 01:05:2450.1246-4.9943611912232531Clb=7.4m/s t=-63.1C h=4.8% 403.30MHz Type=RS41-SG Details on http://radiosondy.info
KERNO2-14U24209152022-12-06 01:05:1350.1267-4.9988912711532449Clb=6.0m/s t=-63.4C h=5.1% 403.30MHz Type=RS41-SG Details on http://radiosondy.info
M7CWL-14U24209152022-12-06 01:05:1050.127-4.9996712010632437Clb=7.0m/s t=-63.5C h=5.2% 403.30MHz Type=RS41-SG batt=2.5V Details on http://radiosondy.info
KERNO2-14U24209152022-12-06 01:04:5950.1321-5.013911511332194Clb=7.3m/s t=-62.8C h=5.2% 403.30MHz Type=RS41-SG Details on http://radiosondy.info
KERNO2-14U24209152022-12-06 01:04:4950.1353-5.030111078531913Clb=7.6m/s t=-62.2C h=4.7% 403.30MHz Type=RS41-SG batt=2.6V Details on http://radiosondy.info
KERNO2-14U24209152022-12-06 01:04:2950.1363-5.036331048331783Clb=7.0m/s t=-62.9C h=5.0% 403.30MHz Type=RS41-SG Details on http://radiosondy.info
KERNO2-14U24209152022-12-06 01:04:0850.1376-5.04111307831672Clb=5.5m/s t=-63.3C h=5.3% 403.30MHz Type=RS41-SG Details on http://radiosondy.info
KERNO2-14U24209152022-12-06 01:03:4950.139-5.044821319131580Clb=5.1m/s t=-62.8C h=5.3% 403.30MHz Type=RS41-SG TxPastBurst=8h30m batt=2.5V Details on http://radiosondy.info
KERNO2-14U24209152022-12-06 01:03:2750.141-5.0491378531480Clb=6.2m/s t=-61.9C h=4.9% 403.30MHz Type=RS41-SG Details on http://radiosondy.info
M7CWL-14U24209152022-12-06 01:03:2050.1413-5.049661148931459Clb=5.9m/s t=-61.8C h=4.8% 403.30MHz Type=RS41-SG Details on http://radiosondy.info
F4IPAU24209152022-12-06 01:03:1750.1417-5.050851289431436Clb=7.4m/s t=-61.6C h=0.9% p=-1.0hPa 403.300 MHz Type=RS41-SG ser=U2420915 Radiosonde
M7CWL-14U24209152022-12-06 01:03:0150.1432-5.053871209131366Clb=6.7m/s t=-61.6C h=4.7% 403.30MHz Type=RS41-SG Details on http://radiosondy.info
M7CWL-14U24209152022-12-06 01:02:3950.1456-5.058461268031258Clb=6.4m/s t=-61.6C h=4.5% 403.30MHz Type=RS41-SG TxPastBurst=8h30m batt=2.6V Details on http://radiosondy.info
KERNO2-14U24209152022-12-06 01:02:3850.1457-5.05871297631252Clb=5.8m/s t=-61.6C h=4.5% 403.30MHz Type=RS41-SG Details on http://radiosondy.info
F4IPAU24209152022-12-06 01:02:3650.146-5.059151358031238Clb=7.5m/s t=-61.7C h=0.9% p=-1.0hPa 403.300 MHz Type=RS41-SG ser=U2420915 Radiosonde
F4IPAU24209152022-12-06 01:01:5550.1493-5.06621316531044Clb=6.2m/s t=-62.5C h=1.0% p=-1.0hPa 403.300 MHz Type=RS41-SG ser=U2420915 Radiosonde
KERNO2-14U24209152022-12-06 01:01:1350.1515-5.072741265630871Clb=5.2m/s t=-63.0C h=4.9% 403.30MHz Type=RS41-SG batt=2.5V Details on http://radiosondy.info
F4IPAU24209152022-12-06 01:01:0950.1517-5.073381215730852Clb=5.9m/s t=-63.3C h=1.0% p=-1.0hPa 403.300 MHz Type=RS41-SG ser=U2420915 Radiosonde
KERNO2-14U24209152022-12-06 01:00:3150.1535-5.0781245730683Clb=5.5m/s t=-63.6C h=5.2% 403.30MHz Type=RS41-SG Details on http://radiosondy.info
F4IPAU24209152022-12-06 01:00:2650.1537-5.07861145430664Clb=5.2m/s t=-63.5C h=1.0% p=-1.0hPa 403.300 MHz Type=RS41-SG ser=U2420915 Radiosonde
KERNO2-14U24209152022-12-06 01:00:0750.155-5.080181266730590Clb=7.3m/s t=-63.2C h=5.1% 403.30MHz Type=RS41-SG Details on http://radiosondy.info
KERNO2-14U24209152022-12-06 00:59:4650.157-5.082691238030490Clb=5.6m/s t=-63.9C h=5.2% 403.30MHz Type=RS41-SG batt=2.5V Details on http://radiosondy.info
F4IPAU24209152022-12-06 00:59:4350.1573-5.083431358530471Clb=5.5m/s t=-64.1C h=1.1% p=-1.0hPa 403.300 MHz Type=RS41-SG ser=U2420915 Radiosonde
M7CWL-14U24209152022-12-06 00:59:2550.1592-5.085321358330397Clb=7.4m/s t=-63.8C h=5.2% 403.30MHz Type=RS41-SG Details on http://radiosondy.info
KERNO2-14U24209152022-12-06 00:59:0550.1615-5.088231318130303Clb=5.9m/s t=-64.4C h=5.4% 403.30MHz Type=RS41-SG Details on http://radiosondy.info
M7CWL-14U24209152022-12-06 00:59:0350.1617-5.088521328730297Clb=5.3m/s t=-64.4C h=5.5% 403.30MHz Type=RS41-SG Details on http://radiosondy.info
F4IPAU24209152022-12-06 00:59:0050.1622-5.089311378730278Clb=6.2m/s t=-64.5C h=1.1% p=-1.0hPa 403.300 MHz Type=RS41-SG ser=U2420915 Radiosonde
KERNO2-14U24209152022-12-06 00:58:4050.1643-5.092371388530191Clb=6.5m/s t=-64.1C h=5.4% 403.30MHz Type=RS41-SG Details on http://radiosondy.info
M7CWL-14U24209152022-12-06 00:58:3850.1645-5.092641408730186Clb=4.5m/s t=-64.1C h=5.3% 403.30MHz Type=RS41-SG batt=2.5V Details on http://radiosondy.info
M7CWL-14U24209152022-12-06 00:58:1950.1668-5.095931418030097Clb=6.2m/s t=-64.0C h=5.4% 403.30MHz Type=RS41-SG Details on http://radiosondy.info
F4IPAU24209152022-12-06 00:58:1850.1669-5.096161368730090Clb=7.5m/s t=-64.1C h=1.0% p=-1.0hPa 403.300 MHz Type=RS41-SG ser=U2420915 Radiosonde
KERNO2-14U24209152022-12-06 00:58:1450.1673-5.096921288530073Clb=4.7m/s t=-63.9C h=5.3% 403.30MHz Type=RS41-SG TxPastBurst=8h30m batt=2.5V Details on http://radiosondy.info
KERNO2-14U24209152022-12-06 00:57:4950.1696-5.100341307429976Clb=6.9m/s t=-64.3C h=5.4% 403.30MHz Type=RS41-SG Details on http://radiosondy.info
F4IPAU24209152022-12-06 00:57:3250.1712-5.10311356329898Clb=5.7m/s t=-64.5C h=1.1% p=-1.0hPa 403.300 MHz Type=RS41-SG ser=U2420915 Radiosonde
KERNO2-14U24209152022-12-06 00:57:1350.1727-5.1051247029837Clb=7.1m/s t=-64.9C h=5.5% 403.30MHz Type=RS41-SG Details on http://radiosondy.info
KERNO2-14U24209152022-12-06 00:56:5150.1747-5.108271246929740Clb=5.4m/s t=-64.8C h=5.6% 403.30MHz Type=RS41-SG batt=2.6V Details on http://radiosondy.info
F4IPAU24209152022-12-06 00:56:4550.175-5.109061255429715Clb=4.2m/s t=-64.7C h=1.1% p=-1.0hPa 403.300 MHz Type=RS41-SG ser=U2420915 Radiosonde
KERNO2-14U24209152022-12-06 00:56:2850.1762-5.111531136529649Clb=6.6m/s t=-64.9C h=5.3% 403.30MHz Type=RS41-SG Details on http://radiosondy.info
KERNO2-14U24209152022-12-06 00:56:0850.1775-5.114751075629554Clb=6.1m/s t=-65.6C h=5.3% 403.30MHz Type=RS41-SG Details on http://radiosondy.info
F4IPAU24209152022-12-06 00:56:0050.1778-5.115751236529524Clb=5.5m/s t=-66.3C h=1.2% p=-1.0hPa 403.300 MHz Type=RS41-SG ser=U2420915 Radiosonde
KERNO2-14U24209152022-12-06 00:55:4150.1788-5.117451364129448Clb=5.3m/s t=-67.6C h=6.2% 403.30MHz Type=RS41-SG batt=2.6V Details on http://radiosondy.info
KERNO2-14U24209152022-12-06 00:55:1550.1808-5.11941586129332Clb=6.0m/s t=-67.8C h=6.7% 403.30MHz Type=RS41-SG Details on http://radiosondy.info
F4IPAU24209152022-12-06 00:55:1450.1808-5.11941576529332Clb=6.0m/s t=-67.8C h=1.5% p=-1.0hPa 403.300 MHz Type=RS41-SG ser=U2420915 Radiosonde
M7CWL-14U24209152022-12-06 00:55:0950.1813-5.119941446129307Clb=5.9m/s t=-67.6C h=6.6% 403.30MHz Type=RS41-SG Details on http://radiosondy.info
M7CWL-14U24209152022-12-06 00:54:4450.1833-5.121461356929211Clb=5.0m/s t=-66.9C h=6.1% 403.30MHz Type=RS41-SG batt=2.5V Details on http://radiosondy.info
F4IPAU24209152022-12-06 00:54:2950.1849-5.122741466329138Clb=6.7m/s t=-67.1C h=1.4% p=-1.0hPa 403.300 MHz Type=RS41-SG ser=U2420915 Radiosonde
M7CWL-14U24209152022-12-06 00:54:1950.1855-5.123431416729108Clb=6.5m/s t=-67.0C h=6.2% 403.30MHz Type=RS41-SG Details on http://radiosondy.info
KERNO2-14U24209152022-12-06 00:54:0750.1866-5.124351566729061Clb=6.7m/s t=-66.7C h=6.1% 403.30MHz Type=RS41-SG Details on http://radiosondy.info
M7CWL-14U24209152022-12-06 00:53:5350.1877-5.125731426529008Clb=7.2m/s t=-67.1C h=6.1% 403.30MHz Type=RS41-SG Details on http://radiosondy.info
KERNO2-14U24209152022-12-06 00:53:4250.1887-5.126831435928967Clb=6.0m/s t=-67.1C h=6.2% 403.30MHz Type=RS41-SG TxPastBurst=8h30m batt=2.6V Details on http://radiosondy.info
F4IPAU24209152022-12-06 00:53:3950.189-5.127181387628953Clb=5.5m/s t=-67.1C h=1.3% p=-1.0hPa 403.300 MHz Type=RS41-SG ser=U2420915 Radiosonde
KERNO2-14U24209152022-12-06 00:53:1050.1911-5.13011355728836Clb=5.5m/s t=-67.0C h=6.3% 403.30MHz Type=RS41-SG Details on http://radiosondy.info
F4IPAU24209152022-12-06 00:52:5250.1923-5.131921295928770Clb=7.4m/s t=-66.6C h=1.3% p=-1.0hPa 403.300 MHz Type=RS41-SG ser=U2420915 Radiosonde
KERNO2-14U24209152022-12-06 00:52:4250.1928-5.132731407028741Clb=5.7m/s t=-66.5C h=6.0% 403.30MHz Type=RS41-SG Details on http://radiosondy.info
KERNO2-14U24209152022-12-06 00:52:1550.1946-5.135761477628644Clb=6.2m/s t=-67.0C h=6.2% 403.30MHz Type=RS41-SG batt=2.5V Details on http://radiosondy.info
F4IPAU24209152022-12-06 00:52:0050.1958-5.138251218028583Clb=5.7m/s t=-66.9C h=1.4% p=-1.0hPa 403.300 MHz Type=RS41-SG ser=U2420915 Radiosonde
KERNO2-14U24209152022-12-06 00:51:5450.1964-5.139581297428548Clb=5.1m/s t=-66.7C h=6.2% 403.30MHz Type=RS41-SG Details on http://radiosondy.info
KERNO2-14U24209152022-12-06 00:51:4050.1978-5.143591227228453Clb=4.9m/s t=-66.3C h=6.2% 403.30MHz Type=RS41-SG Details on http://radiosondy.info
F4IPAU24209152022-12-06 00:51:3150.1983-5.145931095728401Clb=5.1m/s t=-66.0C h=1.3% p=-1.0hPa 403.300 MHz Type=RS41-SG ser=U2420915 Radiosonde
KERNO2-14U24209152022-12-06 00:51:2150.199-5.147841056328354Clb=5.1m/s t=-65.6C h=5.8% 403.30MHz Type=RS41-SG batt=2.5V Details on http://radiosondy.info
KERNO2-14U24209152022-12-06 00:51:0350.2-5.151731015228246Clb=5.2m/s t=-65.5C h=5.6% 403.30MHz Type=RS41-SG Details on http://radiosondy.info
F4IPAU24209152022-12-06 00:50:5850.2002-5.152661135928214Clb=6.9m/s t=-65.5C h=1.2% p=-1.0hPa 403.300 MHz Type=RS41-SG ser=U2420915 Radiosonde
M7CWL-14U24209152022-12-06 00:50:5650.2003-5.153091115428202Clb=5.1m/s t=-65.5C h=5.6% 403.30MHz Type=RS41-SG TxPastBurst=8h30m batt=2.6V Details on http://radiosondy.info
KERNO2-14U24209152022-12-06 00:50:4750.2007-5.154771014828149Clb=4.7m/s t=-65.9C h=5.7% 403.30MHz Type=RS41-SG Details on http://radiosondy.info
M7CWL-14U24209152022-12-06 00:50:4150.2011-5.155881224628113Clb=6.0m/s t=-66.1C h=5.9% 403.30MHz Type=RS41-SG Details on http://radiosondy.info
KERNO2-14U24209152022-12-06 00:50:3450.2016-5.157411164328051Clb=5.0m/s t=-66.3C h=6.1% 403.30MHz Type=RS41-SG TxPastBurst=8h30m batt=2.5V Details on http://radiosondy.info
F4IPAU24209152022-12-06 00:50:2950.2018-5.157931345028026Clb=6.4m/s t=-66.3C h=1.3% p=-1.0hPa 403.300 MHz Type=RS41-SG ser=U2420915 Radiosonde
M7CWL-14U24209152022-12-06 00:50:2750.2019-5.158071344828020Clb=5.7m/s t=-66.2C h=6.1% 403.30MHz Type=RS41-SG Details on http://radiosondy.info
KERNO2-14U24209152022-12-06 00:50:1550.2027-5.159651255027948Clb=5.0m/s t=-65.8C h=5.9% 403.30MHz Type=RS41-SG Details on http://radiosondy.info
KERNO2-14U24209152022-12-06 00:49:5950.2037-5.162131205227856Clb=6.4m/s t=-65.3C h=5.7% 403.30MHz Type=RS41-SG Details on http://radiosondy.info
F4IPAU24209152022-12-06 00:49:5650.2038-5.162711186127836Clb=7.3m/s t=-65.3C h=1.2% p=-1.0hPa 403.300 MHz Type=RS41-SG ser=U2420915 Radiosonde
KERNO2-14U24209152022-12-06 00:49:4350.2047-5.165141116327757Clb=6.9m/s t=-65.5C h=5.8% 403.30MHz Type=RS41-SG batt=2.5V Details on http://radiosondy.info
F4IPAU24209152022-12-06 00:49:3750.2304-5.191231704826356Clb=7.0m/s t=-64.9C h=1.2% p=-1.0hPa 403.300 MHz Type=RS41-SG ser=U2420915 Radiosonde
F4IPAU24209152022-12-06 00:49:3450.2342-5.192021864426177Clb=5.3m/s t=-64.6C h=1.2% p=-1.0hPa 403.300 MHz Type=RS41-SG ser=U2420915 Radiosonde
M7CWL-14U24209152022-12-06 00:49:3350.2364-5.192511785626076Clb=6.4m/s t=-64.5C h=5.6% 403.30MHz Type=RS41-SG Details on http://radiosondy.info
F4IPAU24209152022-12-06 00:49:3250.2384-5.193111834625995Clb=4.7m/s t=-64.2C h=1.2% p=-1.0hPa 403.300 MHz Type=RS41-SG ser=U2420915 Radiosonde
KERNO2-14U24209152022-12-06 00:49:3150.241-5.194211564625871Clb=4.4m/s t=-64.2C h=5.5% 403.30MHz Type=RS41-SG Details on http://radiosondy.info
F4IPAU24209152022-12-06 00:49:3050.2423-5.194721555225813Clb=6.3m/s t=-64.0C h=1.2% p=-1.0hPa 403.300 MHz Type=RS41-SG ser=U2420915 Radiosonde
F4IPAU24209152022-12-06 00:49:2950.2456-5.197361434825626Clb=6.7m/s t=-65.1C h=1.2% p=-1.0hPa 403.300 MHz Type=RS41-SG ser=U2420915 Radiosonde
F4IPAU24209152022-12-06 00:49:1250.2473-5.201091224125434Clb=5.0m/s t=-65.4C h=1.3% p=-1.0hPa 403.300 MHz Type=RS41-SG ser=U2420915 Radiosonde
F4IPAU24209152022-12-06 00:48:2150.2493-5.204541342825247Clb=6.8m/s t=-64.9C h=1.3% p=-1.0hPa 403.300 MHz Type=RS41-SG ser=U2420915 Radiosonde
KERNO2-14U24209152022-12-06 00:48:0950.2496-5.205091493725210Clb=5.2m/s t=-64.6C h=5.6% 403.30MHz Type=RS41-SG Details on http://radiosondy.info
KERNO2-14U24209152022-12-06 00:47:4150.2507-5.206641503525115Clb=5.1m/s t=-64.6C h=5.6% 403.30MHz Type=RS41-SG batt=2.5V Details on http://radiosondy.info
F4IPAU24209152022-12-06 00:47:2350.2513-5.207461313725062Clb=7.1m/s t=-64.4C h=1.2% p=-1.0hPa 403.300 MHz Type=RS41 ser=U2420915 Radiosonde
KERNO2-14U24209152022-12-06 00:47:1050.2518-5.208291343525016Clb=6.5m/s t=-64.2C h=5.5% 403.30MHz Type=RS41-SG Details on http://radiosondy.info
KERNO2-14U24209152022-12-06 00:46:3650.2532-5.210441333924907Clb=5.9m/s t=-64.1C h=5.6% 403.30MHz Type=RS41-SG Details on http://radiosondy.info
F4IPAU24209152022-12-06 00:46:2850.2534-5.210821183124884Clb=5.1m/s t=-273.0C h=-1.0% p=-1.0hPa 403.300 MHz Type=RS41 ser=U2420915 Radiosonde
KERNO2-14U24209152022-12-06 00:46:0650.254-5.212421253724817Clb=5.0m/s t=-63.5C h=5.3% 403.30MHz Type=RS41-SG batt=2.5V Details on http://radiosondy.info
KERNO2-14U24209152022-12-06 00:45:4050.2548-5.214411293124735Clb=4.3m/s t=-63.5C h=5.3% 403.30MHz Type=RS41-SG Details on http://radiosondy.info
KERNO2-14U24209152022-12-06 00:45:0550.2555-5.216241193024629Clb=4.2m/s t=-63.2C h=5.2% 403.30MHz Type=RS41-SG Details on http://radiosondy.info
KERNO2-14U24209152022-12-06 00:44:4050.2559-5.217851043024540Clb=5.9m/s t=-63.0C h=5.3% 403.30MHz Type=RS41-SG TxPastBurst=8h30m batt=2.5V Details on http://radiosondy.info
KERNO2-14U24209152022-12-06 00:44:1150.2561-5.21957852824457Clb=5.5m/s t=-62.6C h=5.1% 403.30MHz Type=RS41-SG Details on http://radiosondy.info
KERNO2-14U24209152022-12-06 00:43:4550.2565-5.220941322424375Clb=4.5m/s t=-62.3C h=5.1% 403.30MHz Type=RS41-SG Details on http://radiosondy.info
KERNO2-14U24209152022-12-06 00:43:1650.2573-5.221851442624292Clb=6.7m/s t=-62.1C h=4.9% 403.30MHz Type=RS41-SG batt=2.5V Details on http://radiosondy.info
KERNO2-14U24209152022-12-06 00:42:4750.2581-5.223051423124206Clb=5.8m/s t=-62.0C h=4.9% 403.30MHz Type=RS41-SG Details on http://radiosondy.info
KERNO2-14U24209152022-12-06 00:42:1450.259-5.224361403024121Clb=5.0m/s t=-62.0C h=4.9% 403.30MHz Type=RS41-SG Details on http://radiosondy.info
KERNO2-14U24209152022-12-06 00:41:4550.2598-5.22561262824041Clb=4.5m/s t=-62.4C h=5.1% 403.30MHz Type=RS41-SG batt=2.6V Details on http://radiosondy.info
KERNO2-14U24209152022-12-06 00:41:1450.2604-5.226891192223955Clb=4.5m/s t=-62.2C h=4.8% 403.30MHz Type=RS41-SG Details on http://radiosondy.info
KERNO2-14U24209152022-12-06 00:40:4550.2607-5.22826971923868Clb=5.7m/s t=-63.0C h=5.3% 403.30MHz Type=RS41-SG Details on http://radiosondy.info
KERNO2-14U24209152022-12-06 00:40:1450.2608-5.229341001523780Clb=5.9m/s t=-62.9C h=5.2% 403.30MHz Type=RS41-SG TxPastBurst=8h30m batt=2.6V Details on http://radiosondy.info
KERNO2-14U24209152022-12-06 00:39:4550.2611-5.229871481523691Clb=5.8m/s t=-62.8C h=5.1% 403.30MHz Type=RS41-SG Details on http://radiosondy.info
KERNO2-14U24209152022-12-06 00:39:1750.2616-5.229442312623606Clb=5.1m/s t=-63.3C h=5.2% 403.30MHz Type=RS41-SG Details on http://radiosondy.info
KERNO2-14U24209152022-12-06 00:38:5050.2626-5.229161873523524Clb=6.5m/s t=-63.4C h=5.4% 403.30MHz Type=RS41-SG batt=2.5V Details on http://radiosondy.info
KERNO2-14U24209152022-12-06 00:38:2350.264-5.229251744323437Clb=5.0m/s t=-63.2C h=5.3% 403.30MHz Type=RS41-SG Details on http://radiosondy.info
KERNO2-14U24209152022-12-06 00:37:5250.2657-5.229451745023353Clb=4.6m/s t=-63.5C h=5.4% 403.30MHz Type=RS41-SG Details on http://radiosondy.info
KERNO2-14U24209152022-12-06 00:37:1750.2677-5.22981694123269Clb=4.3m/s t=-63.4C h=5.5% 403.30MHz Type=RS41-SG batt=2.5V Details on http://radiosondy.info
KERNO2-14U24209152022-12-06 00:36:4550.2693-5.230231743523185Clb=6.3m/s t=-62.9C h=5.3% 403.30MHz Type=RS41-SG Details on http://radiosondy.info
KERNO2-14U24209152022-12-06 00:36:1350.2707-5.230251864123100Clb=5.4m/s t=-62.6C h=5.1% 403.30MHz Type=RS41-SG Details on http://radiosondy.info
KERNO2-14U24209152022-12-06 00:35:5350.2723-5.229931903723014Clb=5.5m/s t=-62.8C h=5.0% 403.30MHz Type=RS41-SG TxPastBurst=8h30m batt=2.6V Details on http://radiosondy.info
KERNO2-14U24209152022-12-06 00:35:4050.2736-5.229022004322929Clb=5.3m/s t=-63.1C h=5.4% 403.30MHz Type=RS41-SG Details on http://radiosondy.info
KERNO2-14U24209152022-12-06 00:35:2450.2752-5.228082004322840Clb=6.3m/s t=-62.8C h=5.2% 403.30MHz Type=RS41-SG Details on http://radiosondy.info
KERNO2-14U24209152022-12-06 00:35:0250.277-5.227121994622747Clb=5.8m/s t=-62.9C h=5.3% 403.30MHz Type=RS41-SG batt=2.6V Details on http://radiosondy.info
KERNO2-14U24209152022-12-06 00:34:4450.2791-5.22661864822652Clb=5.7m/s t=-62.5C h=5.1% 403.30MHz Type=RS41-SG Details on http://radiosondy.info
KERNO2-14U24209152022-12-06 00:34:3150.281-5.226351825622566Clb=4.2m/s t=-62.3C h=5.0% 403.30MHz Type=RS41-SG Details on http://radiosondy.info
KERNO2-14U24209152022-12-06 00:34:1550.2832-5.226191785922482Clb=6.4m/s t=-62.3C h=5.0% 403.30MHz Type=RS41-SG batt=2.6V Details on http://radiosondy.info
KERNO2-14U24209152022-12-06 00:33:5850.2855-5.225971916122396Clb=5.2m/s t=-62.3C h=5.2% 403.30MHz Type=RS41-SG Details on http://radiosondy.info
KERNO2-14U24209152022-12-06 00:33:4050.2879-5.225681745922306Clb=5.2m/s t=-61.7C h=5.1% 403.30MHz Type=RS41-SG Details on http://radiosondy.info
KERNO2-14U24209152022-12-06 00:33:2450.2903-5.22541865622216Clb=4.6m/s t=-60.9C h=4.9% 403.30MHz Type=RS41-SG TxPastBurst=8h30m batt=2.5V Details on http://radiosondy.info
KERNO2-14U24209152022-12-06 00:33:0850.2925-5.224921985422127Clb=6.8m/s t=-60.4C h=4.6% 403.30MHz Type=RS41-SG Details on http://radiosondy.info
KERNO2-14U24209152022-12-06 00:33:0350.3153-5.210662332819598Clb=5.6m/s t=-59.2C h=4.4% 403.30MHz Type=RS41-SG batt=2.6V Details on http://radiosondy.info
KERNO2-14U24209152022-12-06 00:32:3350.316-5.209382313119519Clb=4.5m/s t=-59.0C h=4.4% 403.30MHz Type=RS41-SG Details on http://radiosondy.info
KERNO2-14U24209152022-12-06 00:32:0350.3171-5.208192093319438Clb=4.1m/s t=-58.9C h=4.4% 403.30MHz Type=RS41-SG Details on http://radiosondy.info
KERNO2-14U24209152022-12-06 00:31:3150.3183-5.207392003319361Clb=4.7m/s t=-58.3C h=4.3% 403.30MHz Type=RS41-SG TxPastBurst=8h30m batt=2.6V Details on http://radiosondy.info
KERNO2-14U24209152022-12-06 00:31:0150.3196-5.206781983519281Clb=4.3m/s t=-57.6C h=4.1% 403.30MHz Type=RS41-SG Details on http://radiosondy.info
M7CWL-14U24209152022-12-06 00:30:4650.3202-5.20661883519245Clb=5.1m/s t=-57.4C h=4.0% 403.30MHz Type=RS41-SG Details on http://radiosondy.info
KERNO2-14U24209152022-12-06 00:30:2850.3212-5.206371813119190Clb=5.8m/s t=-57.6C h=4.1% 403.30MHz Type=RS41-SG Details on http://radiosondy.info
M7CWL-14U24209152022-12-06 00:30:1950.3215-5.20641713119169Clb=5.9m/s t=-57.6C h=4.1% 403.30MHz Type=RS41-SG TxPastBurst=8h30m batt=2.7V Details on http://radiosondy.info
KERNO2-14U24209152022-12-06 00:29:5250.3226-5.206531823019099Clb=4.8m/s t=-57.5C h=4.1% 403.30MHz Type=RS41-SG batt=2.6V Details on http://radiosondy.info
M7CWL-14U24209152022-12-06 00:29:5050.3227-5.206521842819095Clb=4.6m/s t=-57.5C h=4.1% 403.30MHz Type=RS41-SG Details on http://radiosondy.info
KERNO2-14U24209152022-12-06 00:29:2550.3237-5.206432003119019Clb=4.3m/s t=-57.1C h=3.9% 403.30MHz Type=RS41-SG Details on http://radiosondy.info
M7CWL-14U24209152022-12-06 00:29:2450.3237-5.206432002619019Clb=4.3m/s t=-57.1C h=3.9% 403.30MHz Type=RS41-SG Details on http://radiosondy.info
KERNO2-14U24209152022-12-06 00:28:5350.325-5.206132063018939Clb=3.9m/s t=-58.0C h=4.1% 403.30MHz Type=RS41-SG Details on http://radiosondy.info
KERNO2-14U24209152022-12-06 00:28:2550.3261-5.205532163118862Clb=4.1m/s t=-58.5C h=4.3% 403.30MHz Type=RS41-SG batt=2.7V Details on http://radiosondy.info
KERNO2-14U24209152022-12-06 00:27:5450.3273-5.205012053018785Clb=5.6m/s t=-58.5C h=4.3% 403.30MHz Type=RS41-SG Details on http://radiosondy.info
KERNO2-14U24209152022-12-06 00:27:2550.3284-5.204631912018708Clb=3.7m/s t=-58.4C h=4.2% 403.30MHz Type=RS41-SG Details on http://radiosondy.info
KERNO2-14U24209152022-12-06 00:26:5150.3291-5.204381962018634Clb=4.8m/s t=-59.1C h=4.4% 403.30MHz Type=RS41-SG TxPastBurst=8h30m batt=2.7V Details on http://radiosondy.info
KERNO2-14U24209152022-12-06 00:26:2350.33-5.20411712018557Clb=6.0m/s t=-59.5C h=4.6% 403.30MHz Type=RS41-SG Details on http://radiosondy.info
KERNO2-14U24209152022-12-06 00:25:5150.3308-5.204191752018482Clb=4.4m/s t=-59.4C h=4.6% 403.30MHz Type=RS41-SG Details on http://radiosondy.info
KERNO2-14U24209152022-12-06 00:25:2050.3315-5.20382151918406Clb=4.3m/s t=-58.9C h=4.5% 403.30MHz Type=RS41-SG batt=2.7V Details on http://radiosondy.info
M7CWL-14U24209152022-12-06 00:25:0750.3317-5.203591822018377Clb=4.1m/s t=-58.7C h=4.4% 403.30MHz Type=RS41-SG batt=2.6V Details on http://radiosondy.info
KERNO2-14U24209152022-12-06 00:24:5050.3322-5.203461992018329Clb=5.9m/s t=-58.2C h=4.2% 403.30MHz Type=RS41-SG Details on http://radiosondy.info
M7CWL-14U24209152022-12-06 00:24:3750.3326-5.203371881918301Clb=3.9m/s t=-58.3C h=4.3% 403.30MHz Type=RS41-SG Details on http://radiosondy.info
KERNO2-14U24209152022-12-06 00:24:1850.333-5.203251842018254Clb=4.1m/s t=-58.4C h=4.4% 403.30MHz Type=RS41-SG Details on http://radiosondy.info
M7CWL-14U24209152022-12-06 00:24:0850.3332-5.203261921918230Clb=5.3m/s t=-58.3C h=4.3% 403.30MHz Type=RS41-SG Details on http://radiosondy.info
KERNO2-14U24209152022-12-06 00:23:4950.3337-5.203331601318177Clb=5.9m/s t=-58.3C h=4.2% 403.30MHz Type=RS41-SG batt=2.6V Details on http://radiosondy.info
M7CWL-14U24209152022-12-06 00:23:4050.3339-5.203421771918155Clb=4.7m/s t=-58.3C h=4.3% 403.30MHz Type=RS41-SG batt=2.6V Details on http://radiosondy.info
KERNO2-14U24209152022-12-06 00:23:1850.3341-5.20373199718097Clb=5.1m/s t=-58.4C h=4.3% 403.30MHz Type=RS41-SG Details on http://radiosondy.info
KERNO2-14U24209152022-12-06 00:22:4850.3343-5.2038226918024Clb=5.7m/s t=-58.8C h=4.4% 403.30MHz Type=RS41-SG Details on http://radiosondy.info
KERNO2-14U24209152022-12-06 00:22:1650.3345-5.203432311317948Clb=5.4m/s t=-58.9C h=4.5% 403.30MHz Type=RS41-SG TxPastBurst=8h30m batt=2.6V Details on http://radiosondy.info
KERNO2-14U24209152022-12-06 00:21:4750.3349-5.202942181517873Clb=4.6m/s t=-59.0C h=4.6% 403.30MHz Type=RS41-SG Details on http://radiosondy.info
KERNO2-14U24209152022-12-06 00:21:1950.3354-5.202621971517797Clb=5.7m/s t=-58.3C h=4.4% 403.30MHz Type=RS41-SG Details on http://radiosondy.info
KERNO2-14U24209152022-12-06 00:20:4950.3359-5.202591601317718Clb=5.3m/s t=-57.7C h=4.3% 403.30MHz Type=RS41-SG batt=2.6V Details on http://radiosondy.info
KERNO2-14U24209152022-12-06 00:20:1750.3364-5.202831591717644Clb=4.4m/s t=-57.6C h=4.2% 403.30MHz Type=RS41-SG Details on http://radiosondy.info
KERNO2-14U24209152022-12-06 00:19:4650.337-5.203411571917570Clb=4.5m/s t=-57.4C h=4.1% 403.30MHz Type=RS41-SG Details on http://radiosondy.info
M7CWL-14U24209152022-12-06 00:19:2850.3374-5.203521661917527Clb=4.2m/s t=-57.8C h=4.2% 403.30MHz Type=RS41-SG Details on http://radiosondy.info
KERNO2-14U24209152022-12-06 00:19:1850.3377-5.203641631717495Clb=4.6m/s t=-57.8C h=4.2% 403.30MHz Type=RS41-SG batt=2.6V Details on http://radiosondy.info
M7CWL-14U24209152022-12-06 00:19:0250.3381-5.203751722017459Clb=4.3m/s t=-57.8C h=4.3% 403.30MHz Type=RS41-SG Details on http://radiosondy.info
KERNO2-14U24209152022-12-06 00:18:4950.3384-5.203861601917422Clb=3.7m/s t=-57.8C h=4.2% 403.30MHz Type=RS41-SG Details on http://radiosondy.info
M7CWL-14U24209152022-12-06 00:18:3550.3388-5.204071671717392Clb=4.5m/s t=-57.7C h=4.3% 403.30MHz Type=RS41-SG TxPastBurst=8h30m batt=2.6V Details on http://radiosondy.info
KERNO2-14U24209152022-12-06 00:18:2050.3391-5.204221671317350Clb=4.3m/s t=-57.6C h=4.2% 403.30MHz Type=RS41-SG Details on http://radiosondy.info
M7CWL-14U24209152022-12-06 00:18:0850.3394-5.20435157917323Clb=4.4m/s t=-57.6C h=4.2% 403.30MHz Type=RS41-SG Details on http://radiosondy.info
KERNO2-14U24209152022-12-06 00:17:4950.3396-5.204311671117275Clb=4.9m/s t=-57.8C h=4.2% 403.30MHz Type=RS41-SG TxPastBurst=8h30m batt=2.6V Details on http://radiosondy.info
KERNO2-14U24209152022-12-06 00:17:1950.34-5.20418235617201Clb=5.4m/s t=-57.7C h=4.3% 403.30MHz Type=RS41-SG Details on http://radiosondy.info
KERNO2-14U24209152022-12-06 00:16:4850.3401-5.20393252717126Clb=4.8m/s t=-57.3C h=4.2% 403.30MHz Type=RS41-SG Details on http://radiosondy.info
KERNO2-14U24209152022-12-06 00:16:1950.3403-5.20364217917051Clb=4.8m/s t=-57.2C h=4.1% 403.30MHz Type=RS41-SG batt=2.7V Details on http://radiosondy.info
KERNO2-14U24209152022-12-06 00:15:5550.3406-5.20362180916972Clb=4.6m/s t=-56.9C h=4.2% 403.30MHz Type=RS41-SG Details on http://radiosondy.info
KERNO2-14U24209152022-12-06 00:15:4050.341-5.203731801116895Clb=5.4m/s t=-56.6C h=4.1% 403.30MHz Type=RS41-SG Details on http://radiosondy.info
KERNO2-14U24209152022-12-06 00:15:2750.3415-5.20399153916818Clb=6.5m/s t=-56.5C h=4.0% 403.30MHz Type=RS41-SG batt=2.7V Details on http://radiosondy.info
KERNO2-14U24209152022-12-06 00:15:0850.3416-5.2044795916737Clb=4.8m/s t=-56.3C h=4.0% 403.30MHz Type=RS41-SG Details on http://radiosondy.info
KERNO2-14U24209152022-12-06 00:14:5150.3417-5.20493148916660Clb=5.3m/s t=-56.1C h=4.0% 403.30MHz Type=RS41-SG Details on http://radiosondy.info
M7CWL-14U24209152022-12-06 00:14:4350.342-5.20516124916587Clb=4.6m/s t=-55.8C h=3.9% 403.30MHz Type=RS41-SG batt=2.6V Details on http://radiosondy.info
M7CWL-14U24209152022-12-06 00:14:3950.3422-5.205531491116517Clb=5.5m/s t=-55.8C h=3.8% 403.30MHz Type=RS41-SG Details on http://radiosondy.info
KERNO2-14U24209152022-12-06 00:14:3850.3422-5.205551201116507Clb=4.2m/s t=-56.2C h=3.9% 403.30MHz Type=RS41-SG Details on http://radiosondy.info
M7CWL-14U24209152022-12-06 00:14:3050.3425-5.205931492416443Clb=5.6m/s t=-56.8C h=4.1% 403.30MHz Type=RS41-SG Details on http://radiosondy.info
KERNO2-14U24209152022-12-06 00:14:2750.3425-5.20595183916428Clb=5.3m/s t=-56.8C h=4.1% 403.30MHz Type=RS41-SG Details on http://radiosondy.info
KERNO2-14U24209152022-12-06 00:14:1050.3429-5.206031681116350Clb=3.6m/s t=-57.4C h=4.3% 403.30MHz Type=RS41-SG batt=2.7V Details on http://radiosondy.info
KERNO2-14U24209152022-12-06 00:13:5950.3434-5.205911912016273Clb=5.5m/s t=-57.5C h=4.3% 403.30MHz Type=RS41-SG Details on http://radiosondy.info
KERNO2-14U24209152022-12-06 00:13:5550.3442-5.205791812616201Clb=5.2m/s t=-57.8C h=4.4% 403.30MHz Type=RS41-SG Details on http://radiosondy.info
KERNO2-14U24209152022-12-06 00:13:5050.3452-5.205881792616128Clb=3.6m/s t=-57.2C h=4.2% 403.30MHz Type=RS41-SG batt=2.7V Details on http://radiosondy.info
KERNO2-14U24209152022-12-06 00:13:4450.3462-5.206211682616056Clb=3.9m/s t=-57.2C h=4.3% 403.30MHz Type=RS41-SG Details on http://radiosondy.info
KERNO2-14U24209152022-12-06 00:13:4350.3473-5.206381773515982Clb=5.1m/s t=-57.1C h=4.3% 403.30MHz Type=RS41-SG Details on http://radiosondy.info
KERNO2-14U24209152022-12-06 00:13:4050.3487-5.206911593315908Clb=4.4m/s t=-56.6C h=4.2% 403.30MHz Type=RS41-SG TxPastBurst=8h30m batt=2.7V Details on http://radiosondy.info
KERNO2-14U24209152022-12-06 00:13:3850.3499-5.207661453315834Clb=4.4m/s t=-56.1C h=3.9% 403.30MHz Type=RS41-SG Details on http://radiosondy.info
KERNO2-14U24209152022-12-06 00:13:3750.351-5.208751433715758Clb=5.4m/s t=-56.0C h=4.0% 403.30MHz Type=RS41-SG Details on http://radiosondy.info
M7CWL-14U24209152022-12-06 00:13:3650.3512-5.209021453515744Clb=5.6m/s t=-56.1C h=4.0% 403.30MHz Type=RS41-SG Details on http://radiosondy.info
M7CWL-14U24209152022-12-06 00:13:3550.3522-5.210361422615678Clb=4.0m/s t=-56.1C h=4.1% 403.30MHz Type=RS41-SG Details on http://radiosondy.info
KERNO2-14U24209152022-12-06 00:13:3250.3528-5.211381272015616Clb=3.4m/s t=-55.6C h=4.0% 403.30MHz Type=RS41-SG Details on http://radiosondy.info
M7CWL-14U24209152022-12-06 00:13:3150.3528-5.211451271915611Clb=4.9m/s t=-55.6C h=3.9% 403.30MHz Type=RS41-SG TxPastBurst=8h30m batt=2.6V Details on http://radiosondy.info
KERNO2-14U24209152022-12-06 00:13:1450.3533-5.212321391915545Clb=5.6m/s t=-55.4C h=3.9% 403.30MHz Type=RS41-SG Details on http://radiosondy.info
KERNO2-14U24209152022-12-06 00:13:0150.354-5.213061131715457Clb=5.3m/s t=-55.9C h=3.9% 403.30MHz Type=RS41-SG batt=2.7V Details on http://radiosondy.info
KERNO2-14U24209152022-12-06 00:13:0050.3544-5.213941272215382Clb=4.5m/s t=-56.2C h=4.1% 403.30MHz Type=RS41-SG Details on http://radiosondy.info
KERNO2-14U24209152022-12-06 00:12:5950.3549-5.215141282015306Clb=5.1m/s t=-56.1C h=4.0% 403.30MHz Type=RS41-SG Details on http://radiosondy.info
KERNO2-14U24209152022-12-06 00:12:5850.3553-5.216191362215234Clb=3.8m/s t=-56.1C h=4.1% 403.30MHz Type=RS41-SG TxPastBurst=8h30m batt=2.6V Details on http://radiosondy.info
KERNO2-14U24209152022-12-06 00:12:5750.3556-5.217341102015164Clb=3.7m/s t=-56.3C h=4.2% 403.30MHz Type=RS41-SG Details on http://radiosondy.info
KERNO2-14U24209152022-12-06 00:12:5650.3559-5.218421141315093Clb=4.4m/s t=-56.4C h=4.2% 403.30MHz Type=RS41-SG Details on http://radiosondy.info
KERNO2-14U24209152022-12-06 00:12:5050.3562-5.219191241715026Clb=4.2m/s t=-56.4C h=4.3% 403.30MHz Type=RS41-SG batt=2.6V Details on http://radiosondy.info
M7CWL-14U24209152022-12-06 00:12:4950.3562-5.219231201915022Clb=3.7m/s t=-56.4C h=4.3% 403.30MHz Type=RS41-SG Details on http://radiosondy.info
KERNO2-14U24209152022-12-06 00:12:2950.3565-5.220091112214959Clb=4.7m/s t=-56.2C h=4.1% 403.30MHz Type=RS41-SG Details on http://radiosondy.info
M7CWL-14U24209152022-12-06 00:12:2150.3565-5.220391152414941Clb=4.3m/s t=-56.1C h=4.1% 403.30MHz Type=RS41-SG Details on http://radiosondy.info
KERNO2-14U24209152022-12-06 00:11:5750.3568-5.22144952414887Clb=4.2m/s t=-56.7C h=4.3% 403.30MHz Type=RS41-SG Details on http://radiosondy.info
M7CWL-14U24209152022-12-06 00:11:5150.3567-5.22177802414875Clb=3.7m/s t=-56.7C h=4.3% 403.30MHz Type=RS41-SG batt=2.6V Details on http://radiosondy.info
KERNO2-14U24209152022-12-06 00:11:3050.3568-5.222911072814819Clb=3.6m/s t=-56.8C h=4.4% 403.30MHz Type=RS41-SG batt=2.6V Details on http://radiosondy.info
M7CWL-14U24209152022-12-06 00:11:2650.3569-5.223091142014811Clb=3.2m/s t=-56.8C h=4.4% 403.30MHz Type=RS41-SG Details on http://radiosondy.info
KERNO2-14U24209152022-12-06 00:11:0050.3574-5.224491163114753Clb=4.1m/s t=-57.3C h=4.5% 403.30MHz Type=RS41-SG Details on http://radiosondy.info
KERNO2-14U24209152022-12-06 00:10:3250.3576-5.22635952614685Clb=4.8m/s t=-57.5C h=4.5% 403.30MHz Type=RS41-SG Details on http://radiosondy.info
KERNO2-14U24209152022-12-06 00:09:5450.3575-5.22814733014608Clb=4.8m/s t=-57.8C h=4.7% 403.30MHz Type=RS41-SG TxPastBurst=8h30m batt=2.6V Details on http://radiosondy.info
KERNO2-14U24209152022-12-06 00:09:2650.3573-5.2299833014539Clb=4.0m/s t=-58.1C h=4.8% 403.30MHz Type=RS41-SG Details on http://radiosondy.info
KERNO2-14U24209152022-12-06 00:08:5250.357-5.23183792614459Clb=4.7m/s t=-57.9C h=4.8% 403.30MHz Type=RS41-SG Details on http://radiosondy.info
KERNO2-14U24209152022-12-06 00:08:2050.3567-5.23356752014380Clb=3.6m/s t=-58.0C h=4.9% 403.30MHz Type=RS41-SG batt=2.6V Details on http://radiosondy.info
KERNO2-14U24209152022-12-06 00:07:4650.3564-5.23482751714299Clb=4.1m/s t=-57.8C h=4.9% 403.30MHz Type=RS41-SG Details on http://radiosondy.info
M7CWL-14U24209152022-12-06 00:07:2350.3563-5.23564751914240Clb=4.2m/s t=-57.4C h=4.8% 403.30MHz Type=RS41-SG Details on http://radiosondy.info
KERNO2-14U24209152022-12-06 00:07:1850.3563-5.23586881914226Clb=3.8m/s t=-57.4C h=4.7% 403.30MHz Type=RS41-SG Details on http://radiosondy.info
M7CWL-14U24209152022-12-06 00:06:5650.3562-5.236661002014174Clb=3.7m/s t=-57.8C h=4.9% 403.30MHz Type=RS41-SG batt=2.6V Details on http://radiosondy.info
KERNO2-14U24209152022-12-06 00:06:5050.3562-5.23695962014156Clb=4.1m/s t=-57.8C h=4.8% 403.30MHz Type=RS41-SG batt=2.6V Details on http://radiosondy.info
M7CWL-14U24209152022-12-06 00:06:3150.3564-5.23781022214104Clb=4.7m/s t=-58.0C h=5.0% 403.30MHz Type=RS41-SG Details on http://radiosondy.info
KERNO2-14U24209152022-12-06 00:06:2350.3565-5.238171222214083Clb=4.9m/s t=-57.9C h=5.0% 403.30MHz Type=RS41-SG Details on http://radiosondy.info
M7CWL-14U24209152022-12-06 00:06:0450.3568-5.23891292014037Clb=3.0m/s t=-57.6C h=5.0% 403.30MHz Type=RS41-SG Details on http://radiosondy.info
KERNO2-14U24209152022-12-06 00:05:5350.357-5.239241342014010Clb=4.3m/s t=-57.5C h=4.8% 403.30MHz Type=RS41-SG Details on http://radiosondy.info
KERNO2-14U24209152022-12-06 00:05:2250.3575-5.240161322013941Clb=3.9m/s t=-57.1C h=4.7% 403.30MHz Type=RS41-SG TxPastBurst=8h30m batt=2.6V Details on http://radiosondy.info
KERNO2-14U24209152022-12-06 00:04:5550.3579-5.241291202413867Clb=5.5m/s t=-56.5C h=4.6% 403.30MHz Type=RS41-SG Details on http://radiosondy.info
KERNO2-14U24209152022-12-06 00:04:2750.3582-5.242771072813791Clb=3.7m/s t=-56.8C h=4.7% 403.30MHz Type=RS41-SG Details on http://radiosondy.info
KERNO2-14U24209152022-12-06 00:04:0150.3585-5.244451032413720Clb=4.1m/s t=-56.6C h=4.7% 403.30MHz Type=RS41-SG batt=2.7V Details on http://radiosondy.info
KERNO2-14U24209152022-12-06 00:03:4650.3587-5.24582962013650Clb=4.8m/s t=-56.5C h=4.6% 403.30MHz Type=RS41-SG Details on http://radiosondy.info
KERNO2-14U24209152022-12-06 00:03:3250.359-5.246991191713581Clb=3.5m/s t=-56.5C h=4.5% 403.30MHz Type=RS41-SG Details on http://radiosondy.info
KERNO2-14U24209152022-12-06 00:03:1650.3593-5.247851251713514Clb=4.6m/s t=-56.4C h=4.6% 403.30MHz Type=RS41-SG batt=2.6V Details on http://radiosondy.info
KERNO2-14U24209152022-12-06 00:02:5750.3597-5.248641041913443Clb=4.0m/s t=-56.2C h=4.7% 403.30MHz Type=RS41-SG Details on http://radiosondy.info
M7CWL-14U24209152022-12-06 00:02:5550.3597-5.248761041913434Clb=4.6m/s t=-56.1C h=4.6% 403.30MHz Type=RS41-SG TxPastBurst=8h30m batt=2.7V Details on http://radiosondy.info
KERNO2-14U24209152022-12-06 00:02:4150.3598-5.24975942013367Clb=4.7m/s t=-55.6C h=4.5% 403.30MHz Type=RS41-SG Details on http://radiosondy.info
KERNO2-14U24209152022-12-06 00:02:2550.36-5.25104952413295Clb=5.0m/s t=-55.1C h=4.3% 403.30MHz Type=RS41-SG TxPastBurst=8h30m batt=2.6V Details on http://radiosondy.info
M7CWL-14U24209152022-12-06 00:02:2350.36-5.25119942413287Clb=3.0m/s t=-55.0C h=4.3% 403.30MHz Type=RS41-SG Details on http://radiosondy.info
KERNO2-14U24209152022-12-06 00:02:1150.3601-5.252471023013226Clb=3.7m/s t=-54.7C h=4.2% 403.30MHz Type=RS41-SG Details on http://radiosondy.info
M7CWL-14U24209152022-12-06 00:02:0950.3601-5.25257983013222Clb=5.4m/s t=-54.8C h=4.2% 403.30MHz Type=RS41-SG batt=2.7V Details on http://radiosondy.info
KERNO2-14U24209152022-12-06 00:01:5350.3604-5.254261113013157Clb=3.6m/s t=-55.3C h=4.3% 403.30MHz Type=RS41-SG Details on http://radiosondy.info
KERNO2-14U24209152022-12-06 00:01:3750.3606-5.25601923013088Clb=4.3m/s t=-55.4C h=4.6% 403.30MHz Type=RS41-SG batt=2.7V Details on http://radiosondy.info
KERNO2-14U24209152022-12-06 00:01:2450.3605-5.25778883013018Clb=5.0m/s t=-55.2C h=4.5% 403.30MHz Type=RS41-SG Details on http://radiosondy.info
KERNO2-14U24209152022-12-06 00:01:0650.3603-5.25959872812949Clb=3.6m/s t=-55.0C h=4.4% 403.30MHz Type=RS41-SG Details on http://radiosondy.info
KERNO2-14U24209152022-12-06 00:00:5550.3596-5.26498792812736Clb=3.1m/s t=-55.0C h=4.6% 403.30MHz Type=RS41-SG Details on http://radiosondy.info
KERNO2-14U24209152022-12-06 00:00:5250.3596-5.26666913112666Clb=5.2m/s t=-55.1C h=4.7% 403.30MHz Type=RS41-SG TxPastBurst=8h30m batt=2.6V Details on http://radiosondy.info
M7CWL-14U24209152022-12-06 00:00:5150.3594-5.26775772812628Clb=4.7m/s t=-55.4C h=4.8% 403.30MHz Type=RS41-SG Details on http://radiosondy.info
KERNO2-14U24209152022-12-06 00:00:4950.3594-5.26856822612600Clb=3.9m/s t=-55.5C h=5.0% 403.30MHz Type=RS41-SG Details on http://radiosondy.info
M7CWL-14U24209152022-12-06 00:00:4650.3592-5.26936822612566Clb=3.3m/s t=-55.3C h=4.8% 403.30MHz Type=RS41-SG Details on http://radiosondy.info
KERNO2-14U24209152022-12-06 00:00:4450.3592-5.27011893012533Clb=3.3m/s t=-55.3C h=4.8% 403.30MHz Type=RS41-SG Details on http://radiosondy.info
M7CWL-14U24209152022-12-06 00:00:4350.3591-5.27086803112504Clb=4.3m/s t=-55.6C h=5.0% 403.30MHz Type=RS41-SG batt=2.6V Details on http://radiosondy.info
KERNO2-14U24209152022-12-06 00:00:4150.359-5.27193783512466Clb=2.4m/s t=-56.2C h=5.1% 403.30MHz Type=RS41-SG batt=2.6V Details on http://radiosondy.info
M7CWL-14U24209152022-12-06 00:00:3850.3589-5.27272823012440Clb=4.3m/s t=-56.2C h=5.1% 403.30MHz Type=RS41-SG Details on http://radiosondy.info
KERNO2-14U24209152022-12-06 00:00:3750.3588-5.27408843512398Clb=2.7m/s t=-56.9C h=5.4% 403.30MHz Type=RS41-SG Details on http://radiosondy.info
KERNO2-14U24209152022-12-06 00:00:3350.3586-5.27617763712330Clb=3.1m/s t=-56.8C h=5.4% 403.30MHz Type=RS41-SG Details on http://radiosondy.info
KERNO2-14U24209152022-12-06 00:00:3250.358-5.27827533312258Clb=4.0m/s t=-57.0C h=5.7% 403.30MHz Type=RS41-SG batt=2.6V Details on http://radiosondy.info
KERNO2-14U24209152022-12-06 00:00:3150.3573-5.27997523112177Clb=3.3m/s t=-56.4C h=5.5% 403.30MHz Type=RS41-SG Details on http://radiosondy.info
KERNO2-14U24209152022-12-06 00:00:2350.3567-5.28161562612101Clb=5.0m/s t=-57.3C h=5.9% 403.30MHz Type=RS41-SG Details on http://radiosondy.info
KERNO2-14U24209152022-12-05 23:59:5650.3562-5.28285642012039Clb=3.2m/s t=-57.3C h=6.2% 403.30MHz Type=RS41-SG TxPastBurst=8h30m batt=2.7V Details on http://radiosondy.info
KERNO2-14U24209152022-12-05 23:59:2750.3559-5.28402692411973Clb=4.4m/s t=-57.7C h=6.5% 403.30MHz Type=RS41-SG Details on http://radiosondy.info
KERNO2-14U24209152022-12-05 23:58:5950.3554-5.28528612611906Clb=3.5m/s t=-57.3C h=6.3% 403.30MHz Type=RS41-SG Details on http://radiosondy.info
M7CWL-14U24209152022-12-05 23:58:3350.355-5.28669722811840Clb=4.4m/s t=-56.7C h=6.3% 403.30MHz Type=RS41-SG Details on http://radiosondy.info
KERNO2-14U24209152022-12-05 23:58:3250.355-5.2868682811836Clb=4.6m/s t=-56.7C h=6.3% 403.30MHz Type=RS41-SG batt=2.7V Details on http://radiosondy.info
M7CWL-14U24209152022-12-05 23:58:0850.3548-5.28825683011775Clb=4.0m/s t=-56.2C h=6.4% 403.30MHz Type=RS41-SG TxPastBurst=8h30m batt=2.7V Details on http://radiosondy.info
KERNO2-14U24209152022-12-05 23:58:0450.3548-5.28846663111764Clb=4.9m/s t=-56.1C h=6.5% 403.30MHz Type=RS41-SG Details on http://radiosondy.info
M7CWL-14U24209152022-12-05 23:57:4050.3546-5.28989833911705Clb=4.0m/s t=-56.2C h=7.0% 403.30MHz Type=RS41-SG Details on http://radiosondy.info
KERNO2-14U24209152022-12-05 23:57:3250.3545-5.29057803911683Clb=4.5m/s t=-56.3C h=7.1% 403.30MHz Type=RS41-SG Details on http://radiosondy.info
M7CWL-14U24209152022-12-05 23:57:1550.3542-5.29208743111635Clb=5.4m/s t=-56.4C h=7.5% 403.30MHz Type=RS41-SG Details on http://radiosondy.info
KERNO2-14U24209152022-12-05 23:57:0450.3541-5.29293773711610Clb=4.1m/s t=-56.8C h=8.0% 403.30MHz Type=RS41-SG batt=2.7V Details on http://radiosondy.info
KERNO2-14U24209152022-12-05 23:56:3450.3537-5.29517723911541Clb=3.9m/s t=-57.4C h=9.2% 403.30MHz Type=RS41-SG Details on http://radiosondy.info
KERNO2-14U24209152022-12-05 23:56:0350.3531-5.29765743711463Clb=3.8m/s t=-58.1C h=10.8% 403.30MHz Type=RS41-SG Details on http://radiosondy.info
KERNO2-14U24209152022-12-05 23:56:0150.3525-5.29975643711392Clb=3.3m/s t=-57.6C h=11.4% 403.30MHz Type=RS41-SG TxPastBurst=8h30m batt=2.7V Details on http://radiosondy.info
KERNO2-14U24209152022-12-05 23:56:0050.3519-5.3018583911323Clb=5.2m/s t=-57.5C h=11.8% 403.30MHz Type=RS41-SG Details on http://radiosondy.info
KERNO2-14U24209152022-12-05 23:55:5950.3512-5.30393673511256Clb=3.9m/s t=-57.3C h=12.2% 403.30MHz Type=RS41-SG Details on http://radiosondy.info
KERNO2-14U24209152022-12-05 23:55:5050.3506-5.30589643011183Clb=4.3m/s t=-57.2C h=13.4% 403.30MHz Type=RS41-SG batt=2.7V Details on http://radiosondy.info
KERNO2-14U24209152022-12-05 23:55:2650.35-5.30747573111113Clb=5.0m/s t=-57.0C h=14.1% 403.30MHz Type=RS41-SG Details on http://radiosondy.info
M7CWL-14U24209152022-12-05 23:55:0150.3495-5.30898603311049Clb=6.7m/s t=-56.9C h=14.8% 403.30MHz Type=RS41-SG batt=2.7V Details on http://radiosondy.info
KERNO2-14U24209152022-12-05 23:54:5950.3495-5.30921673311038Clb=3.7m/s t=-56.8C h=15.0% 403.30MHz Type=RS41-SG Details on http://radiosondy.info
M7CWL-14U24209152022-12-05 23:54:3950.3492-5.3108553710980Clb=6.1m/s t=-56.4C h=15.5% 403.30MHz Type=RS41-SG Details on http://radiosondy.info
KERNO2-14U24209152022-12-05 23:54:3650.349-5.31113603910965Clb=4.1m/s t=-56.3C h=15.5% 403.30MHz Type=RS41-SG batt=2.7V Details on http://radiosondy.info
M7CWL-14U24209152022-12-05 23:54:1550.3485-5.31274654410901Clb=4.5m/s t=-56.5C h=16.1% 403.30MHz Type=RS41-SG Details on http://radiosondy.info
KERNO2-14U24209152022-12-05 23:54:0950.3484-5.3133654410886Clb=3.0m/s t=-56.4C h=16.2% 403.30MHz Type=RS41-SG Details on http://radiosondy.info
M7CWL-14U24209152022-12-05 23:53:4950.3478-5.31524665610839Clb=3.3m/s t=-56.3C h=15.8% 403.30MHz Type=RS41-SG batt=2.7V Details on http://radiosondy.info
KERNO2-14U24209152022-12-05 23:53:4450.3477-5.31585703910824Clb=3.4m/s t=-56.2C h=16.0% 403.30MHz Type=RS41-SG Details on http://radiosondy.info
KERNO2-14U24209152022-12-05 23:53:1650.3472-5.31812664610761Clb=7.0m/s t=-55.7C h=15.1% 403.30MHz Type=RS41-SG TxPastBurst=8h30m batt=2.7V Details on http://radiosondy.info
KERNO2-14U24209152022-12-05 23:52:5150.3464-5.32088695410683Clb=3.9m/s t=-55.9C h=15.1% 403.30MHz Type=RS41-SG Details on http://radiosondy.info
KERNO2-14U24209152022-12-05 23:52:2450.3456-5.32393645010622Clb=3.0m/s t=-56.0C h=14.9% 403.30MHz Type=RS41-SG Details on http://radiosondy.info
KERNO2-14U24209152022-12-05 23:51:5850.3446-5.32668644410558Clb=3.1m/s t=-56.0C h=14.7% 403.30MHz Type=RS41-SG batt=2.7V Details on http://radiosondy.info
KERNO2-14U24209152022-12-05 23:51:4250.3438-5.32912644810497Clb=4.7m/s t=-55.7C h=13.9% 403.30MHz Type=RS41-SG Details on http://radiosondy.info
KERNO2-14U24209152022-12-05 23:51:2650.3429-5.33186635610431Clb=3.8m/s t=-55.8C h=13.2% 403.30MHz Type=RS41-SG Details on http://radiosondy.info
KERNO2-14U24209152022-12-05 23:51:1750.342-5.33501645710366Clb=4.7m/s t=-55.5C h=12.6% 403.30MHz Type=RS41-SG batt=2.7V Details on http://radiosondy.info
KERNO2-14U24209152022-12-05 23:51:1650.3411-5.33842756110299Clb=5.5m/s t=-55.1C h=12.9% 403.30MHz Type=RS41-SG Details on http://radiosondy.info
KERNO2-14U24209152022-12-05 23:51:1550.3404-5.34189677610211Clb=5.1m/s t=-54.9C h=12.3% 403.30MHz Type=RS41-SG Details on http://radiosondy.info
KERNO2-14U24209152022-12-05 23:51:1450.3392-5.34617697010144Clb=2.6m/s t=-54.6C h=12.2% 403.30MHz Type=RS41-SG TxPastBurst=8h30m batt=2.7V Details on http://radiosondy.info
KERNO2-14U24209152022-12-05 23:51:1350.338-5.3502656710077Clb=5.1m/s t=-54.2C h=11.5% 403.30MHz Type=RS41-SG Details on http://radiosondy.info
M7CWL-14U24209152022-12-05 23:51:1250.338-5.35043666910073Clb=3.7m/s t=-54.1C h=11.5% 403.30MHz Type=RS41-SG Details on http://radiosondy.info
KERNO2-14U24209152022-12-05 23:50:5650.3369-5.35397646510009Clb=4.5m/s t=-53.6C h=11.2% 403.30MHz Type=RS41-SG Details on http://radiosondy.info
KERNO2-14U24209152022-12-05 23:50:3150.3358-5.3576268659938Clb=3.9m/s t=-53.0C h=10.8% 403.30MHz Type=RS41-SG batt=2.7V Details on http://radiosondy.info
KERNO2-14U24209152022-12-05 23:50:0450.3347-5.3611763659870Clb=3.8m/s t=-52.7C h=10.6% 403.30MHz Type=RS41-SG Details on http://radiosondy.info
KERNO2-14U24209152022-12-05 23:49:4050.3334-5.3646556639799Clb=2.5m/s t=-52.3C h=10.6% 403.30MHz Type=RS41-SG Details on http://radiosondy.info
KERNO2-14U24209152022-12-05 23:49:1550.3321-5.368160619733Clb=4.9m/s t=-52.3C h=10.4% 403.30MHz Type=RS41-SG batt=2.7V Details on http://radiosondy.info
KERNO2-14U24209152022-12-05 23:48:4950.3309-5.3713756619667Clb=4.6m/s t=-52.3C h=10.5% 403.30MHz Type=RS41-SG Details on http://radiosondy.info
KERNO2-14U24209152022-12-05 23:48:1950.3293-5.3749559679594Clb=3.0m/s t=-52.2C h=10.5% 403.30MHz Type=RS41-SG Details on http://radiosondy.info
KERNO2-14U24209152022-12-05 23:47:5750.3277-5.3782652679530Clb=4.9m/s t=-52.0C h=10.7% 403.30MHz Type=RS41-SG TxPastBurst=8h30m batt=2.7V Details on http://radiosondy.info
M7CWL-14U24209152022-12-05 23:47:5150.3271-5.3795253679504Clb=5.0m/s t=-52.2C h=11.1% 403.30MHz Type=RS41-SG Details on http://radiosondy.info
KERNO2-14U24209152022-12-05 23:47:4150.326-5.3814946679462Clb=3.1m/s t=-52.0C h=11.2% 403.30MHz Type=RS41-SG Details on http://radiosondy.info
M7CWL-14U24209152022-12-05 23:47:3650.3255-5.3824951679443Clb=4.7m/s t=-52.0C h=11.4% 403.30MHz Type=RS41-SG batt=2.7V Details on http://radiosondy.info
KERNO2-14U24209152022-12-05 23:47:2650.3243-5.3846850619398Clb=4.6m/s t=-51.9C h=11.6% 403.30MHz Type=RS41-SG Details on http://radiosondy.info
M7CWL-14U24209152022-12-05 23:47:2150.3239-5.3854654619380Clb=3.8m/s t=-51.7C h=11.5% 403.30MHz Type=RS41-SG Details on http://radiosondy.info
KERNO2-14U24209152022-12-05 23:47:1050.3228-5.387751579328Clb=5.5m/s t=-51.5C h=12.2% 403.30MHz Type=RS41-SG batt=2.7V Details on http://radiosondy.info
M7CWL-14U24209152022-12-05 23:47:0650.3225-5.3882553599316Clb=4.9m/s t=-51.4C h=12.6% 403.30MHz Type=RS41-SG Details on http://radiosondy.info
KERNO2-14U24209152022-12-05 23:46:5350.3214-5.3904252509261Clb=4.9m/s t=-51.3C h=14.0% 403.30MHz Type=RS41-SG Details on http://radiosondy.info
KERNO2-14U24209152022-12-05 23:46:4950.3185-5.3951244599133Clb=4.3m/s t=-51.1C h=22.0% 403.30MHz Type=RS41-SG batt=2.7V Details on http://radiosondy.info
KERNO2-14U24209152022-12-05 23:46:4850.3168-5.397747619071Clb=3.5m/s t=-51.1C h=37.9% 403.30MHz Type=RS41-SG Details on http://radiosondy.info
KERNO2-14U24209152022-12-05 23:46:4250.315-5.4001636639009Clb=4.3m/s t=-50.9C h=50.6% 403.30MHz Type=RS41-SG Details on http://radiosondy.info
KERNO2-14U24209152022-12-05 23:46:2250.313-5.4025438618946Clb=3.2m/s t=-50.4C h=59.1% 403.30MHz Type=RS41-SG TxPastBurst=8h30m batt=2.7V Details on http://radiosondy.info
KERNO2-14U24209152022-12-05 23:45:5850.3111-5.4048139598881Clb=3.9m/s t=-50.1C h=50.8% 403.30MHz Type=RS41-SG Details on http://radiosondy.info
KERNO2-14U24209152022-12-05 23:45:3350.3092-5.4071139618817Clb=4.2m/s t=-49.6C h=45.5% 403.30MHz Type=RS41-SG Details on http://radiosondy.info
M7CWL-14U24209152022-12-05 23:45:1650.3081-5.4086144598779Clb=3.3m/s t=-49.2C h=44.7% 403.30MHz Type=RS41-SG batt=2.7V Details on http://radiosondy.info
KERNO2-14U24209152022-12-05 23:45:0750.3074-5.4095641618755Clb=4.6m/s t=-49.0C h=44.1% 403.30MHz Type=RS41-SG batt=2.7V Details on http://radiosondy.info
M7CWL-14U24209152022-12-05 23:44:5250.3064-5.4109240618721Clb=3.8m/s t=-48.7C h=43.9% 403.30MHz Type=RS41-SG Details on http://radiosondy.info
KERNO2-14U24209152022-12-05 23:44:4250.3056-5.4120642618693Clb=4.0m/s t=-48.4C h=42.2% 403.30MHz Type=RS41-SG Details on http://radiosondy.info
M7CWL-14U24209152022-12-05 23:44:3050.3046-5.4132542638661Clb=4.8m/s t=-48.1C h=40.3% 403.30MHz Type=RS41-SG Details on http://radiosondy.info
KERNO2-14U24209152022-12-05 23:44:1950.3037-5.4145744618626Clb=4.9m/s t=-47.8C h=38.6% 403.30MHz Type=RS41-SG Details on http://radiosondy.info
M7CWL-14U24209152022-12-05 23:44:0750.3029-5.4157445378596Clb=3.1m/s t=-47.5C h=37.7% 403.30MHz Type=RS41-SG TxPastBurst=8h30m batt=2.7V Details on http://radiosondy.info
KERNO2-14U24209152022-12-05 23:43:5750.3019-5.4172145618557Clb=4.8m/s t=-47.1C h=37.7% 403.30MHz Type=RS41-SG batt=2.7V Details on http://radiosondy.info
KERNO2-14U24209152022-12-05 23:43:4150.3002-5.4197944598488Clb=4.7m/s t=-46.5C h=30.8% 403.30MHz Type=RS41-SG Details on http://radiosondy.info
KERNO2-14U24209152022-12-05 23:43:2550.2985-5.4223246598418Clb=5.0m/s t=-46.2C h=33.4% 403.30MHz Type=RS41-SG Details on http://radiosondy.info
KERNO2-14U24209152022-12-05 23:43:0950.2968-5.4248751568348Clb=4.7m/s t=-45.6C h=31.9% 403.30MHz Type=RS41-SG TxPastBurst=8h30m batt=2.7V Details on http://radiosondy.info
KERNO2-14U24209152022-12-05 23:42:5350.2951-5.4272235508272Clb=8.4m/s t=-44.9C h=30.4% 403.30MHz Type=RS41-SG Details on http://radiosondy.info
KERNO2-14U24209152022-12-05 23:42:3750.2937-5.429256488161Clb=4.9m/s t=-44.0C h=35.8% 403.30MHz Type=RS41-SG Details on http://radiosondy.info
KERNO2-14U24209152022-12-05 23:42:2850.2912-5.432942337981Clb=3.9m/s t=-43.0C h=44.5% 403.30MHz Type=RS41-SG Details on http://radiosondy.info
M7CWL-14U24209152022-12-05 23:42:2750.2902-5.43349360377907Clb=6.3m/s t=-42.5C h=47.4% 403.30MHz Type=RS41-SG Details on http://radiosondy.info
M7CWL-14U24209152022-12-05 23:42:1850.2888-5.4338621357844Clb=3.8m/s t=-42.0C h=54.1% 403.30MHz Type=RS41-SG Details on http://radiosondy.info
KERNO2-14U24209152022-12-05 23:42:1650.2886-5.4340528357833Clb=3.7m/s t=-41.9C h=55.1% 403.30MHz Type=RS41-SG batt=2.7V Details on http://radiosondy.info
M7CWL-14U24209152022-12-05 23:41:5750.2876-5.43442360377777Clb=4.7m/s t=-41.4C h=54.9% 403.30MHz Type=RS41-SG batt=2.7V Details on http://radiosondy.info
KERNO2-14U24209152022-12-05 23:41:5250.2872-5.4345421357762Clb=4.1m/s t=-41.3C h=55.1% 403.30MHz Type=RS41-SG Details on http://radiosondy.info
M7CWL-14U24209152022-12-05 23:41:3650.2863-5.4349819307713Clb=5.8m/s t=-40.8C h=52.5% 403.30MHz Type=RS41-SG Details on http://radiosondy.info
KERNO2-14U24209152022-12-05 23:41:2950.2859-5.4351816437692Clb=5.5m/s t=-40.6C h=50.6% 403.30MHz Type=RS41-SG Details on http://radiosondy.info
KERNO2-14U24209152022-12-05 23:41:0550.2841-5.435512437611Clb=2.6m/s t=-40.1C h=55.6% 403.30MHz Type=RS41-SG TxPastBurst=8h30m batt=2.7V Details on http://radiosondy.info
KERNO2-14U24209152022-12-05 23:40:4050.2825-5.4358610397547Clb=5.7m/s t=-39.7C h=74.1% 403.30MHz Type=RS41-SG Details on http://radiosondy.info
KERNO2-14U24209152022-12-05 23:40:1750.281-5.4363714377473Clb=5.5m/s t=-39.0C h=57.8% 403.30MHz Type=RS41-SG Details on http://radiosondy.info
KERNO2-14U24209152022-12-05 23:39:5750.2796-5.4367512317410Clb=2.6m/s t=-38.4C h=48.5% 403.30MHz Type=RS41-SG batt=2.7V Details on http://radiosondy.info
KERNO2-14U24209152022-12-05 23:39:4150.2784-5.4372621357333Clb=3.5m/s t=-37.7C h=44.4% 403.30MHz Type=RS41-SG Details on http://radiosondy.info
KERNO2-14U24209152022-12-05 23:39:2550.277-5.4377924337262Clb=3.8m/s t=-37.0C h=28.0% 403.30MHz Type=RS41-SG Details on http://radiosondy.info
KERNO2-14U24209152022-12-05 23:39:0950.2758-5.438212317186Clb=4.4m/s t=-36.4C h=35.8% 403.30MHz Type=RS41-SG batt=2.7V Details on http://radiosondy.info
KERNO2-14U24209152022-12-05 23:38:5350.2746-5.438618307124Clb=4.7m/s t=-35.8C h=24.4% 403.30MHz Type=RS41-SG Details on http://radiosondy.info
M7CWL-14U24209152022-12-05 23:38:5050.2744-5.4386710307113Clb=3.9m/s t=-35.7C h=22.1% 403.30MHz Type=RS41-SG Details on http://radiosondy.info
KERNO2-14U24209152022-12-05 23:38:3750.2735-5.4390516357060Clb=5.1m/s t=-35.2C h=13.8% 403.30MHz Type=RS41-SG Details on http://radiosondy.info
M7CWL-14U24209152022-12-05 23:38:3550.2733-5.43919377052Clb=3.3m/s t=-35.2C h=13.4% 403.30MHz Type=RS41-SG batt=2.7V Details on http://radiosondy.info
KERNO2-14U24209152022-12-05 23:38:2150.2721-5.439358316986Clb=3.5m/s t=-34.8C h=13.2% 403.30MHz Type=RS41-SG TxPastBurst=8h30m batt=2.9V Details on http://radiosondy.info
M7CWL-14U24209152022-12-05 23:38:2050.272-5.4393811316981Clb=4.8m/s t=-34.8C h=13.1% 403.30MHz Type=RS41-SG Details on http://radiosondy.info
KERNO2-14U24209152022-12-05 23:38:0550.2709-5.43968356919Clb=3.4m/s t=-34.2C h=14.1% 403.30MHz Type=RS41-SG Details on http://radiosondy.info
KERNO2-14U24209152022-12-05 23:37:5950.2695-5.439820396852Clb=5.7m/s t=-33.6C h=18.0% 403.30MHz Type=RS41-SG Details on http://radiosondy.info
KERNO2-14U24209152022-12-05 23:37:5850.268-5.4401343356766Clb=6.2m/s t=-33.1C h=19.3% 403.30MHz Type=RS41-SG batt=2.9V Details on http://radiosondy.info
KERNO2-14U24209152022-12-05 23:37:5150.2666-5.440028306686Clb=4.0m/s t=-32.5C h=24.3% 403.30MHz Type=RS41-SG Details on http://radiosondy.info
KERNO2-14U24209152022-12-05 23:37:3150.2655-5.440285306607Clb=8.1m/s t=-31.9C h=25.7% 403.30MHz Type=RS41-SG Details on http://radiosondy.info
KERNO2-14U24209152022-12-05 23:37:0550.2644-5.43997360306522Clb=8.1m/s t=-31.4C h=26.1% 403.30MHz Type=RS41-SG batt=2.9V Details on http://radiosondy.info
KERNO2-14U24209152022-12-05 23:36:4150.2632-5.440211336443Clb=4.9m/s t=-30.7C h=25.2% 403.30MHz Type=RS41-SG Details on http://radiosondy.info
KERNO2-14U24209152022-12-05 23:36:1850.2619-5.44045351316382Clb=5.3m/s t=-30.1C h=20.0% 403.30MHz Type=RS41-SG Details on http://radiosondy.info
KERNO2-14U24209152022-12-05 23:35:5750.2607-5.440465306300Clb=4.1m/s t=-29.3C h=20.2% 403.30MHz Type=RS41-SG TxPastBurst=8h30m batt=2.9V Details on http://radiosondy.info
M7CWL-14U24209152022-12-05 23:35:5150.2603-5.44038352306267Clb=4.6m/s t=-29.0C h=19.3% 403.30MHz Type=RS41-SG TxPastBurst=8h30m batt=2.9V Details on http://radiosondy.info
KERNO2-14U24209152022-12-05 23:35:4150.2595-5.440420306224Clb=4.1m/s t=-28.6C h=18.0% 403.30MHz Type=RS41-SG Details on http://radiosondy.info
M7CWL-14U24209152022-12-05 23:35:3650.2592-5.440565306202Clb=5.1m/s t=-28.4C h=17.5% 403.30MHz Type=RS41-SG Details on http://radiosondy.info
KERNO2-14U24209152022-12-05 23:35:2550.2584-5.44036332266152Clb=3.3m/s t=-28.2C h=19.7% 403.30MHz Type=RS41-SG Details on http://radiosondy.info
M7CWL-14U24209152022-12-05 23:35:2150.2582-5.4402351226136Clb=5.4m/s t=-28.1C h=17.6% 403.30MHz Type=RS41-SG Details on http://radiosondy.info
KERNO2-14U24209152022-12-05 23:35:0950.2575-5.44022351306081Clb=5.2m/s t=-27.8C h=17.0% 403.30MHz Type=RS41-SG batt=2.7V Details on http://radiosondy.info
M7CWL-14U24209152022-12-05 23:35:0650.2573-5.44013327286067Clb=4.5m/s t=-27.7C h=17.3% 403.30MHz Type=RS41-SG batt=2.9V Details on http://radiosondy.info
KERNO2-14U24209152022-12-05 23:34:5350.2564-5.43963352336004Clb=4.7m/s t=-27.2C h=25.9% 403.30MHz Type=RS41-SG Details on http://radiosondy.info
KERNO2-14U24209152022-12-05 23:34:3750.2551-5.43912345335923Clb=6.1m/s t=-26.5C h=33.0% 403.30MHz Type=RS41-SG Details on http://radiosondy.info
KERNO2-14U24209152022-12-05 23:34:2150.2538-5.43855336375856Clb=4.9m/s t=-25.9C h=36.0% 403.30MHz Type=RS41-SG batt=2.9V Details on http://radiosondy.info
KERNO2-14U24209152022-12-05 23:34:0650.2525-5.43805328355789Clb=6.0m/s t=-25.2C h=36.6% 403.30MHz Type=RS41-SG Details on http://radiosondy.info
KERNO2-14U24209152022-12-05 23:33:5050.2512-5.4372357315686Clb=7.0m/s t=-24.2C h=32.8% 403.30MHz Type=RS41-SG Details on http://radiosondy.info
KERNO2-14U24209152022-12-05 23:33:3750.2493-5.4356333335526Clb=5.1m/s t=-23.5C h=6.5% 403.30MHz Type=RS41-SG Details on http://radiosondy.info
KERNO2-14U24209152022-12-05 23:33:2350.2481-5.43466327305464Clb=6.9m/s t=-23.1C h=6.5% 403.30MHz Type=RS41-SG Details on http://radiosondy.info
M7CWL-14U24209152022-12-05 23:33:0950.2476-5.43416336315417Clb=4.5m/s t=-22.7C h=6.5% 403.30MHz Type=RS41-SG Details on http://radiosondy.info
KERNO2-14U24209152022-12-05 23:33:0150.2471-5.43364329305392Clb=4.4m/s t=-22.4C h=6.4% 403.30MHz Type=RS41-SG batt=2.7V Details on http://radiosondy.info
M7CWL-14U24209152022-12-05 23:32:4950.2466-5.43316316225340Clb=5.2m/s t=-22.0C h=6.1% 403.30MHz Type=RS41-SG Details on http://radiosondy.info
KERNO2-14U24209152022-12-05 23:32:4050.2462-5.43261312225310Clb=3.6m/s t=-21.8C h=6.3% 403.30MHz Type=RS41-SG Details on http://radiosondy.info
M7CWL-14U24209152022-12-05 23:32:2750.2459-5.4323295315279Clb=4.3m/s t=-21.5C h=6.1% 403.30MHz Type=RS41-SG batt=2.9V Details on http://radiosondy.info
KERNO2-14U24209152022-12-05 23:32:1850.2455-5.43158325355233Clb=6.5m/s t=-21.1C h=6.4% 403.30MHz Type=RS41-SG Details on http://radiosondy.info
M7CWL-14U24209152022-12-05 23:32:0750.2452-5.43096313375192Clb=7.1m/s t=-20.8C h=6.5% 403.30MHz Type=RS41-SG Details on http://radiosondy.info
KERNO2-14U24209152022-12-05 23:31:5850.2445-5.43015315335145Clb=6.9m/s t=-20.5C h=6.7% 403.30MHz Type=RS41-SG batt=2.9V Details on http://radiosondy.info
KERNO2-14U24209152022-12-05 23:31:4250.2437-5.42863302315063Clb=4.0m/s t=-19.8C h=6.6% 403.30MHz Type=RS41-SG Details on http://radiosondy.info
KERNO2-14U24209152022-12-05 23:31:2650.2427-5.42749314354978Clb=5.2m/s t=-19.7C h=8.6% 403.30MHz Type=RS41-SG Details on http://radiosondy.info
KERNO2-14U24209152022-12-05 23:31:1150.2417-5.42605320334897Clb=3.3m/s t=-19.4C h=10.9% 403.30MHz Type=RS41-SG TxPastBurst=8h30m batt=2.9V Details on http://radiosondy.info
KERNO2-14U24209152022-12-05 23:30:5450.2407-5.42491332284819Clb=3.6m/s t=-18.8C h=11.6% 403.30MHz Type=RS41-SG Details on http://radiosondy.info
KERNO2-14U24209152022-12-05 23:30:3850.2398-5.42376306314723Clb=5.7m/s t=-18.5C h=16.0% 403.30MHz Type=RS41-SG Details on http://radiosondy.info
KERNO2-14U24209152022-12-05 23:30:2250.2393-5.42212304224643Clb=5.3m/s t=-17.8C h=16.3% 403.30MHz Type=RS41-SG batt=2.9V Details on http://radiosondy.info
KERNO2-14U24209152022-12-05 23:30:0450.2387-5.42102304334537Clb=4.8m/s t=-16.9C h=18.7% 403.30MHz Type=RS41-SG Details on http://radiosondy.info
M7CWL-14U24209152022-12-05 23:29:5250.2379-5.41984339314474Clb=6.9m/s t=-16.4C h=20.4% 403.30MHz Type=RS41-SG Details on http://radiosondy.info
KERNO2-14U24209152022-12-05 23:29:4850.2377-5.41964313334451Clb=6.4m/s t=-16.2C h=23.5% 403.30MHz Type=RS41-SG Details on http://radiosondy.info
M7CWL-14U24209152022-12-05 23:29:3750.2371-5.41849294334394Clb=5.7m/s t=-15.8C h=27.2% 403.30MHz Type=RS41-SG TxPastBurst=8h30m batt=2.9V Details on http://radiosondy.info
KERNO2-14U24209152022-12-05 23:29:3350.2369-5.41793316354357Clb=6.7m/s t=-15.5C h=27.9% 403.30MHz Type=RS41-SG batt=2.7V Details on http://radiosondy.info
M7CWL-14U24209152022-12-05 23:29:2250.2364-5.41691297414301Clb=4.3m/s t=-15.1C h=30.9% 403.30MHz Type=RS41-SG Details on http://radiosondy.info
KERNO2-14U24209152022-12-05 23:29:1650.2361-5.4161301374271Clb=7.7m/s t=-14.8C h=32.2% 403.30MHz Type=RS41-SG Details on http://radiosondy.info
M7CWL-14U24209152022-12-05 23:29:1550.2355-5.41498312224211Clb=5.5m/s t=-14.5C h=37.0% 403.30MHz Type=RS41-SG Details on http://radiosondy.info
KERNO2-14U24209152022-12-05 23:29:1150.2352-5.41432310244170Clb=7.4m/s t=-14.3C h=38.1% 403.30MHz Type=RS41-SG Details on http://radiosondy.info
KERNO2-14U24209152022-12-05 23:28:5550.2348-5.41302294204096Clb=4.0m/s t=-13.9C h=40.5% 403.30MHz Type=RS41-SG TxPastBurst=8h30m batt=2.9V Details on http://radiosondy.info
KERNO2-14U24209152022-12-05 23:28:3550.2343-5.41202313194005Clb=6.3m/s t=-13.2C h=36.4% 403.30MHz Type=RS41-SG Details on http://radiosondy.info
KERNO2-14U24209152022-12-05 23:28:1450.2338-5.41109299243922Clb=6.3m/s t=-12.5C h=35.2% 403.30MHz Type=RS41-SG Details on http://radiosondy.info
KERNO2-14U24209152022-12-05 23:27:5650.2336-5.40966287243830Clb=3.7m/s t=-11.8C h=28.5% 403.30MHz Type=RS41-SG batt=2.7V Details on http://radiosondy.info
KERNO2-14U24209152022-12-05 23:27:4050.2333-5.40834275203747Clb=4.5m/s t=-11.3C h=30.7% 403.30MHz Type=RS41-SG Details on http://radiosondy.info
KERNO2-14U24209152022-12-05 23:27:2450.2328-5.4073319203659Clb=4.4m/s t=-10.9C h=42.6% 403.30MHz Type=RS41-SG Details on http://radiosondy.info
KERNO2-14U24209152022-12-05 23:27:0850.2326-5.40615291153581Clb=5.4m/s t=-10.2C h=44.6% 403.30MHz Type=RS41-SG batt=2.9V Details on http://radiosondy.info
KERNO2-14U24209152022-12-05 23:26:5250.2325-5.40525266223489Clb=3.8m/s t=-9.4C h=44.4% 403.30MHz Type=RS41-SG Details on http://radiosondy.info
M7CWL-14U24209152022-12-05 23:26:3750.2326-5.40401273333427Clb=4.4m/s t=-8.8C h=43.3% 403.30MHz Type=RS41-SG Details on http://radiosondy.info
KERNO2-14U24209152022-12-05 23:26:3650.2326-5.4039274333422Clb=5.5m/s t=-8.8C h=42.8% 403.30MHz Type=RS41-SG Details on http://radiosondy.info
M7CWL-14U24209152022-12-05 23:26:2250.2322-5.40219310283360Clb=5.1m/s t=-8.4C h=42.8% 403.30MHz Type=RS41-SG Details on http://radiosondy.info
KERNO2-14U24209152022-12-05 23:26:2050.2321-5.40202292243350Clb=5.1m/s t=-8.4C h=43.4% 403.30MHz Type=RS41-SG TxPastBurst=8h30m batt=2.9V Details on http://radiosondy.info
M7CWL-14U24209152022-12-05 23:26:0750.2317-5.40082298303282Clb=4.7m/s t=-8.4C h=61.2% 403.30MHz Type=RS41-SG batt=2.9V Details on http://radiosondy.info
KERNO2-14U24209152022-12-05 23:26:0450.2317-5.40067299303269Clb=3.0m/s t=-8.4C h=65.8% 403.30MHz Type=RS41-SG Details on http://radiosondy.info
KERNO2-14U24209152022-12-05 23:25:4850.2314-5.39891277303206Clb=4.3m/s t=-8.4C h=71.9% 403.30MHz Type=RS41-SG Details on http://radiosondy.info
KERNO2-14U24209152022-12-05 23:25:3250.2312-5.39708285223143Clb=3.8m/s t=-9.0C h=85.5% 403.30MHz Type=RS41-SG batt=2.9V Details on http://radiosondy.info
KERNO2-14U24209152022-12-05 23:25:1650.2311-5.39572300393072Clb=5.9m/s t=-8.5C h=81.6% 403.30MHz Type=RS41-SG Details on http://radiosondy.info
KERNO2-14U24209152022-12-05 23:25:0250.2301-5.39388317262994Clb=3.7m/s t=-7.7C h=77.0% 403.30MHz Type=RS41-SG Details on http://radiosondy.info
KERNO2-14U24209152022-12-05 23:24:5150.2295-5.39254280352923Clb=4.4m/s t=-7.1C h=73.8% 403.30MHz Type=RS41-SG batt=2.9V Details on http://radiosondy.info
KERNO2-14U24209152022-12-05 23:24:3050.2288-5.39046275352825Clb=7.3m/s t=-6.2C h=67.8% 403.30MHz Type=RS41-SG Details on http://radiosondy.info
KERNO2-14U24209152022-12-05 23:24:1150.2284-5.38833271372746Clb=5.0m/s t=-5.4C h=64.7% 403.30MHz Type=RS41-SG Details on http://radiosondy.info
KERNO2-14U24209152022-12-05 23:23:5450.228-5.38618279392663Clb=5.1m/s t=-4.9C h=49.0% 403.30MHz Type=RS41-SG TxPastBurst=8h30m batt=2.9V Details on http://radiosondy.info
M7CWL-14U24209152022-12-05 23:23:5150.2279-5.38569280352647Clb=6.6m/s t=-4.8C h=46.4% 403.30MHz Type=RS41-SG Details on http://radiosondy.info
KERNO2-14U24209152022-12-05 23:23:3950.2276-5.38397299262574Clb=3.9m/s t=-4.7C h=57.9% 403.30MHz Type=RS41-SG Details on http://radiosondy.info
M7CWL-14U24209152022-12-05 23:23:3650.2276-5.38377300262564Clb=5.0m/s t=-4.6C h=57.0% 403.30MHz Type=RS41-SG Details on http://radiosondy.info
M7CWL-14U24209152022-12-05 23:23:2150.2275-5.38239303172491Clb=4.1m/s t=-4.3C h=56.3% 403.30MHz Type=RS41-SG TxPastBurst=8h30m batt=2.9V Details on http://radiosondy.info
KERNO2-14U24209152022-12-05 23:23:0650.2273-5.38147270242420Clb=4.7m/s t=-3.8C h=56.3% 403.30MHz Type=RS41-SG batt=2.9V Details on http://radiosondy.info
KERNO2-14U24209152022-12-05 23:22:5050.2272-5.38003315262351Clb=4.3m/s t=-3.1C h=54.3% 403.30MHz Type=RS41-SG Details on http://radiosondy.info
KERNO2-14U24209152022-12-05 23:22:3450.227-5.37858259192259Clb=5.5m/s t=-2.5C h=54.8% 403.30MHz Type=RS41-SG Details on http://radiosondy.info
KERNO2-14U24209152022-12-05 23:22:1850.2268-5.37758331202177Clb=4.8m/s t=-1.9C h=52.3% 403.30MHz Type=RS41-SG batt=2.9V Details on http://radiosondy.info
KERNO2-14U24209152022-12-05 23:22:0250.2262-5.37664288242110Clb=4.0m/s t=-1.4C calibration 96% 403.30MHz Type=RS41-SG Details on http://radiosondy.info
KERNO2-14U24209152022-12-05 23:21:4650.2261-5.37526267192018Clb=5.8m/s t=-0.7C calibration 96% 403.30MHz Type=RS41-SG Details on http://radiosondy.info
KERNO2-14U24209152022-12-05 23:21:3050.2257-5.37424309221929Clb=3.6m/s t=-0.1C calibration 96% 403.30MHz Type=RS41-SG TxPastBurst=8h30m batt=2.9V Details on http://radiosondy.info
KERNO2-14U24209152022-12-05 23:21:1450.2255-5.37297255171857Clb=3.7m/s t=0.4C calibration 92% 403.30MHz Type=RS41-SG Details on http://radiosondy.info
KERNO2-14U24209152022-12-05 23:20:5850.2254-5.37208264261782Clb=5.3m/s t=0.8C calibration 92% 403.30MHz Type=RS41-SG Details on http://radiosondy.info
M7CWL-14U24209152022-12-05 23:20:5150.2252-5.37138287241738Clb=5.6m/s t=1.1C h=54.2% 403.30MHz Type=RS41-SG Details on http://radiosondy.info
KERNO2-14U24209152022-12-05 23:20:4450.2251-5.37059280221699Clb=4.7m/s t=1.0C calibration 92% 403.30MHz Type=RS41-SG batt=2.9V Details on http://radiosondy.info
M7CWL-14U24209152022-12-05 23:20:3650.2252-5.37004245241669Clb=4.3m/s t=-0.2C h=66.3% 403.30MHz Type=RS41-SG batt=2.9V Details on http://radiosondy.info
KERNO2-14U24209152022-12-05 23:20:2850.2253-5.36927270331626Clb=4.1m/s t=-1.4C calibration 84% 403.30MHz Type=RS41 Details on http://radiosondy.info
M7CWL-14U24209152022-12-05 23:20:2150.2253-5.36866280331599Clb=4.8m/s t=-1.6C h=86.0% 403.30MHz Type=RS41-SG Details on http://radiosondy.info
KERNO2-14U24209152022-12-05 23:20:1150.2248-5.36745316351558Clb=3.3m/s calibration 70% 403.30MHz Type=RS41 Details on http://radiosondy.info
M7CWL-14U24209152022-12-05 23:20:0550.2246-5.36697293391536Clb=4.4m/s calibration 98% 403.30MHz Type=RS41-SG Details on http://radiosondy.info
KERNO2-14U24209152022-12-05 23:19:5450.2241-5.3656299391485Clb=5.1m/s calibration 54% 403.30MHz Type=RS41 batt=2.9V Details on http://radiosondy.info
KERNO2-14U24209152022-12-05 23:19:3850.2229-5.36377318331423Clb=4.4m/s calibration 41% 403.30MHz Type=RS41 Details on http://radiosondy.info
KERNO2-14U24209152022-12-05 23:19:2050.2222-5.3616293371352Clb=3.7m/s calibration 25% 403.30MHz Type=RS41 Details on http://radiosondy.info
KERNO2-14U24209152022-12-05 23:19:0450.2213-5.35966305411277Clb=6.0m/s calibration 11% Type=RS41 batt=2.9V Details on http://radiosondy.info
M7CWL-14U24209152022-12-05 23:17:5150.2187-5.3502727541915Clb=4.4m/s calibration 96% 403.30MHz Type=RS41-SG batt=2.9V Details on http://radiosondy.info
M7CWL-14U24209152022-12-05 23:17:3650.2182-5.3480529941848Clb=4.0m/s calibration 66% 403.30MHz Type=RS41-SG Details on http://radiosondy.info
M7CWL-14U24209152022-12-05 23:17:2050.2178-5.3456228243773Clb=4.5m/s calibration 37% Type=RS41-SG Details on http://radiosondy.info
M7CWL-14U24209152022-12-05 23:17:0550.2175-5.3431627139685Clb=7.1m/s calibration 7% Type=RS41 batt=2.9V Details on http://radiosondy.info